Observation data for Goodnight on 01/22/2019      Previous  Date  Next       Current Mesonet Observations  Soil Data  Daily Summary Page  Observations in Plain Language
KGO1 220600Z 20020KT 13/M00 A296 RMK A01 T01271002  RH  041%=      5-min Rain = 0
KGO1 220601Z 20016KT 13/M00 A296 RMK A01 T01281002  RH  041%=      5-min Rain = 0
KGO1 220602Z 20017KT 13/M00 A296 RMK A01 T01281002  RH  041%=      5-min Rain = 0
KGO1 220603Z 20016KT 13/M00 A296 RMK A01 T01271002  RH  041%=      5-min Rain = 0
KGO1 220604Z 20017KT 13/M00 A296 RMK A01 T01261002  RH  041%=      5-min Rain = 0
KGO1 220605Z 20016KT 13/M00 A296 RMK A01 T01271002  RH  041%=      5-min Rain = 0
KGO1 220606Z 20017G22KT 13/M00 A296 RMK A01 T01261001  RH  041%=      5-min Rain = 0
KGO1 220607Z 20014KT 13/M00 A296 RMK A01 T01251002  RH  042%=      5-min Rain = 0
KGO1 220608Z 20016KT 12/M00 A296 RMK A01 T01241002  RH  042%=      5-min Rain = 0
KGO1 220609Z 20017KT 12/M00 A296 RMK A01 T01241002  RH  042%=      5-min Rain = 0
KGO1 220610Z 20018KT 13/M00 A296 RMK A01 T01251001  RH  042%=      5-min Rain = 0
KGO1 220611Z 20017KT 13/M00 A296 RMK A01 T01251001  RH  042%=      5-min Rain = 0
KGO1 220612Z 21017G22KT 13/M00 A296 RMK A01 T01251001  RH  042%=      5-min Rain = 0
KGO1 220613Z 20018KT 13/M00 A296 RMK A01 T01251001  RH  042%=      5-min Rain = 0
KGO1 220614Z 21017KT 13/M00 A296 RMK A01 T01251001  RH  042%=      5-min Rain = 0
KGO1 220615Z 20017KT 12/M00 A296 RMK A01 T01241001  RH  042%=      5-min Rain = 0
KGO1 220616Z 20018KT 12/M00 A296 RMK A01 T01241001  RH  042%=      5-min Rain = 0
KGO1 220617Z 20017G22KT 12/M00 A296 RMK A01 T01241001  RH  042%=      5-min Rain = 0
KGO1 220618Z 20016KT 12/M00 A296 RMK A01 T01241001  RH  042%=      5-min Rain = 0
KGO1 220619Z 20018KT 12/M00 A296 RMK A01 T01221001  RH  043%=      5-min Rain = 0
KGO1 220620Z 20019KT 12/M00 A296 RMK A01 T01221001  RH  043%=      5-min Rain = 0
KGO1 220621Z 20016KT 12/M00 A2961 RMK A01 T01221001  RH  043%=      5-min Rain = 0
KGO1 220622Z 20015KT 12/M00 A2961 RMK A01 T01221001  RH  043%=      5-min Rain = 0
KGO1 220623Z 20017KT 12/M00 A2961 RMK A01 T01221001  RH  043%=      5-min Rain = 0
KGO1 220624Z 20017KT 12/M00 A2961 RMK A01 T01211001  RH  043%=      5-min Rain = 0
KGO1 220625Z 20014KT 12/M00 A2961 RMK A01 T01211001  RH  043%=      5-min Rain = 0
KGO1 220626Z 20015KT 12/M00 A2961 RMK A01 T01211001  RH  043%=      5-min Rain = 0
KGO1 220627Z 21014KT 12/M00 A2961 RMK A01 T01201001  RH  043%=      5-min Rain = 0
KGO1 220628Z 21014KT 12/M00 A2961 RMK A01 T01191001  RH  043%=      5-min Rain = 0
KGO1 220629Z 21015KT 12/M00 A2961 RMK A01 T01191001  RH  044%=      5-min Rain = 0
KGO1 220630Z 21017KT 12/M00 A2961 RMK A01 T01191001  RH  044%=      5-min Rain = 0
KGO1 220631Z 21014KT 12/M00 A2961 RMK A01 T01191001  RH  044%=      5-min Rain = 0
KGO1 220632Z 21015KT 12/M00 A2961 RMK A01 T01191001  RH  044%=      5-min Rain = 0
KGO1 220633Z 21015KT 12/M00 A2961 RMK A01 T01191001  RH  044%=      5-min Rain = 0
KGO1 220634Z 21015KT 12/M00 A2961 RMK A01 T01181001  RH  044%=      5-min Rain = 0
KGO1 220635Z 21014KT 12/00 A2961 RMK A01 T011700-0  RH  044%=      5-min Rain = 0
KGO1 220636Z 20015KT 12/M00 A2961 RMK A01 T01161001  RH  044%=      5-min Rain = 0
KGO1 220637Z 20014KT 12/00 A2961 RMK A01 T011600-0  RH  045%=      5-min Rain = 0
KGO1 220638Z 20014KT 12/00 A2961 RMK A01 T011600-0  RH  045%=      5-min Rain = 0
KGO1 220639Z 20015KT 12/M00 A2961 RMK A01 T01151001  RH  045%=      5-min Rain = 0
KGO1 220640Z 20016KT 11/M00 A2961 RMK A01 T01141001  RH  045%=      5-min Rain = 0
KGO1 220641Z 20016KT 11/00 A2961 RMK A01 T011400-0  RH  045%=      5-min Rain = 0
KGO1 220642Z 20015KT 12/00 A2961 RMK A01 T01160000  RH  045%=      5-min Rain = 0
KGO1 220643Z 20015KT 12/00 A2961 RMK A01 T011500-0  RH  045%=      5-min Rain = 0
KGO1 220644Z 20017KT 12/00 A2961 RMK A01 T01150000  RH  045%=      5-min Rain = 0
KGO1 220645Z 20016KT 12/00 A2961 RMK A01 T01160000  RH  045%=      5-min Rain = 0
KGO1 220646Z 20016KT 12/00 A2961 RMK A01 T011500-0  RH  045%=      5-min Rain = 0
KGO1 220647Z 20016KT 12/00 A2961 RMK A01 T011500-0  RH  045%=      5-min Rain = 0
KGO1 220648Z 20015KT 11/00 A2961 RMK A01 T011400-0  RH  045%=      5-min Rain = 0
KGO1 220649Z 20016KT 11/00 A2961 RMK A01 T011300-0  RH  046%=      5-min Rain = 0
KGO1 220650Z 20014KT 11/00 A2961 RMK A01 T011300-0  RH  046%=      5-min Rain = 0
KGO1 220651Z 20014KT 11/00 A2961 RMK A01 T011300-0  RH  046%=      5-min Rain = 0
KGO1 220652Z 20014KT 11/M00 A2961 RMK A01 T01121001  RH  046%=      5-min Rain = 0
KGO1 220653Z 20016KT 11/M00 A2961 RMK A01 T01111001  RH  046%=      5-min Rain = 0
KGO1 220654Z 20016KT 11/00 A2961 RMK A01 T01110000  RH  046%=      5-min Rain = 0
KGO1 220655Z 20016KT 11/00 A2961 RMK A01 T01120000  RH  046%=      5-min Rain = 0
KGO1 220656Z 19016KT 11/00 A2961 RMK A01 T011100-0  RH  046%=      5-min Rain = 0
KGO1 220657Z 20016KT 11/00 A2961 RMK A01 T01110000  RH  046%=      5-min Rain = 0
KGO1 220658Z 20016KT 11/00 A2961 RMK A01 T01120000  RH  046%=      5-min Rain = 0
KGO1 220659Z 19016KT 11/00 A2961 RMK A01 T01120000  RH  046%=      5-min Rain = 0
KGO1 220700Z 19016KT 11/00 A2961 RMK A01 T01120000  RH  046%=      5-min Rain = 0
KGO1 220701Z 20015KT 11/00 A2961 RMK A01 T01110000  RH  046%=      5-min Rain = 0
KGO1 220702Z 20015KT 11/00 A2961 RMK A01 T01110000  RH  046%=      5-min Rain = 0
KGO1 220703Z 20014KT 11/00 A2961 RMK A01 T011000-0  RH  046%=      5-min Rain = 0
KGO1 220704Z 20015KT 11/M00 A2961 RMK A01 T01091001  RH  047%=      5-min Rain = 0
KGO1 220705Z 20016KT 11/00 A2961 RMK A01 T010900-0  RH  047%=      5-min Rain = 0
KGO1 220706Z 19014KT 11/00 A2961 RMK A01 T010800-0  RH  047%=      5-min Rain = 0
KGO1 220707Z 19015KT 11/M00 A2961 RMK A01 T01071001  RH  047%=      5-min Rain = 0
KGO1 220708Z 20015KT 11/00 A2961 RMK A01 T010800-0  RH  047%=      5-min Rain = 0
KGO1 220709Z 20015KT 11/00 A2961 RMK A01 T010800-0  RH  047%=      5-min Rain = 0
KGO1 220710Z 20016KT 11/00 A2961 RMK A01 T010800-0  RH  047%=      5-min Rain = 0
KGO1 220711Z 20016KT 11/00 A2961 RMK A01 T010800-0  RH  047%=      5-min Rain = 0
KGO1 220712Z 20016KT 11/00 A2961 RMK A01 T010800-0  RH  047%=      5-min Rain = 0
KGO1 220713Z 20016KT 11/00 A2961 RMK A01 T010800-0  RH  047%=      5-min Rain = 0
KGO1 220714Z 20015KT 11/00 A2961 RMK A01 T010800-0  RH  047%=      5-min Rain = 0
KGO1 220715Z 19015KT 11/00 A2961 RMK A01 T010800-0  RH  047%=      5-min Rain = 0
KGO1 220716Z 20015KT 11/00 A2961 RMK A01 T010700-0  RH  047%=      5-min Rain = 0
KGO1 220717Z 20014KT 11/00 A2961 RMK A01 T010700-0  RH  047%=      5-min Rain = 0
KGO1 220718Z 20016KT 11/00 A2961 RMK A01 T010700-0  RH  048%=      5-min Rain = 0
KGO1 220719Z 20019KT 11/00 A296 RMK A01 T01080000  RH  047%=      5-min Rain = 0
KGO1 220720Z 20017KT 11/00 A296 RMK A01 T01100001  RH  047%=      5-min Rain = 0
KGO1 220721Z 20017KT 11/00 A296 RMK A01 T011000-0  RH  047%=      5-min Rain = 0
KGO1 220722Z 20017KT 11/00 A296 RMK A01 T01100000  RH  047%=      5-min Rain = 0
KGO1 220723Z 20017KT 11/00 A296 RMK A01 T01100000  RH  047%=      5-min Rain = 0
KGO1 220724Z 20016KT 11/00 A296 RMK A01 T01090000  RH  047%=      5-min Rain = 0
KGO1 220725Z 20016G21KT 11/00 A296 RMK A01 T01090000  RH  047%=      5-min Rain = 0
KGO1 220726Z 20014KT 11/00 A296 RMK A01 T01090000  RH  047%=      5-min Rain = 0
KGO1 220727Z 20019KT 11/00 A296 RMK A01 T01090001  RH  047%=      5-min Rain = 0
KGO1 220728Z 20016G21KT 11/00 A296 RMK A01 T01100001  RH  047%=      5-min Rain = 0
KGO1 220729Z 20015KT 11/00 A296 RMK A01 T01100001  RH  047%=      5-min Rain = 0
KGO1 220730Z 20016KT 11/00 A296 RMK A01 T01090000  RH  047%=      5-min Rain = 0
KGO1 220731Z 20015KT 11/00 A296 RMK A01 T01090000  RH  047%=      5-min Rain = 0
KGO1 220732Z 20015KT 11/00 A2961 RMK A01 T01090000  RH  047%=      5-min Rain = 0
KGO1 220733Z 20016KT 11/00 A2961 RMK A01 T01080001  RH  047%=      5-min Rain = 0
KGO1 220734Z 20017KT 11/00 A2961 RMK A01 T01080001  RH  047%=      5-min Rain = 0
KGO1 220735Z 21016KT 11/00 A2961 RMK A01 T01090001  RH  047%=      5-min Rain = 0
KGO1 220736Z 21015KT 11/00 A2961 RMK A01 T01080001  RH  047%=      5-min Rain = 0
KGO1 220737Z 20015KT 11/00 A2961 RMK A01 T01080001  RH  048%=      5-min Rain = 0
KGO1 220738Z 21015KT 11/00 A2961 RMK A01 T01080001  RH  048%=      5-min Rain = 0
KGO1 220739Z 21015KT 11/00 A2961 RMK A01 T01080001  RH  048%=      5-min Rain = 0
KGO1 220740Z 20015G22KT 11/00 A2961 RMK A01 T01080001  RH  048%=      5-min Rain = 0
KGO1 220741Z 21017KT 11/00 A2961 RMK A01 T01080001  RH  048%=      5-min Rain = 0
KGO1 220742Z 20016KT 11/00 A2961 RMK A01 T01090002  RH  048%=      5-min Rain = 0
KGO1 220743Z 20016KT 11/00 A2961 RMK A01 T01090002  RH  047%=      5-min Rain = 0
KGO1 220744Z 21015KT 11/00 A2961 RMK A01 T01090002  RH  048%=      5-min Rain = 0
KGO1 220745Z 21017KT 11/00 A2961 RMK A01 T01080002  RH  048%=      5-min Rain = 0
KGO1 220746Z 21014KT 11/00 A2961 RMK A01 T01080002  RH  048%=      5-min Rain = 0
KGO1 220747Z 21015KT 11/00 A2961 RMK A01 T01080002  RH  048%=      5-min Rain = 0
KGO1 220748Z 21014KT 11/00 A2961 RMK A01 T01080002  RH  048%=      5-min Rain = 0
KGO1 220749Z 21015KT 11/00 A2961 RMK A01 T01070001  RH  048%=      5-min Rain = 0
KGO1 220750Z 21016KT 11/00 A2961 RMK A01 T01070002  RH  048%=      5-min Rain = 0
KGO1 220751Z 21013KT 11/00 A2961 RMK A01 T01060002  RH  048%=      5-min Rain = 0
KGO1 220752Z 21012KT 11/00 A2961 RMK A01 T01060002  RH  048%=      5-min Rain = 0
KGO1 220753Z 21014KT 10/00 A2961 RMK A01 T01040001  RH  049%=      5-min Rain = 0
KGO1 220754Z 21015KT 10/00 A2961 RMK A01 T01040002  RH  049%=      5-min Rain = 0
KGO1 220755Z 21012KT 10/00 A2961 RMK A01 T01040002  RH  049%=      5-min Rain = 0
KGO1 220756Z 21013KT 10/00 A2961 RMK A01 T01040002  RH  049%=      5-min Rain = 0
KGO1 220757Z 22014KT 10/00 A2961 RMK A01 T01040002  RH  049%=      5-min Rain = 0
KGO1 220758Z 21013KT 10/00 A2961 RMK A01 T01040002  RH  049%=      5-min Rain = 0
KGO1 220759Z 22014KT 10/00 A2961 RMK A01 T01030001  RH  049%=      5-min Rain = 0
KGO1 220800Z 21014KT 10/00 A2961 RMK A01 T01020002  RH  050%=      5-min Rain = 0
KGO1 220801Z 22015KT 10/00 A2962 RMK A01 T01020002  RH  050%=      5-min Rain = 0
KGO1 220802Z 23013KT 10/00 A2963 RMK A01 T01030002  RH  050%=      5-min Rain = 0
KGO1 220803Z 27014KT 10/00 A2964 RMK A01 T01030002  RH  049%=      5-min Rain = 0
KGO1 220804Z 29019KT 10/00 A2965 RMK A01 T01010001  RH  050%=      5-min Rain = 0
KGO1 220805Z 29020KT 10/00 A2966 RMK A01 T01000002  RH  051%=      5-min Rain = 0
KGO1 220806Z 29018KT 10/00 A2966 RMK A01 T00990003  RH  051%=      5-min Rain = 0
KGO1 220807Z 29019G24KT 10/00 A2966 RMK A01 T00990003  RH  051%=      5-min Rain = 0
KGO1 220808Z 27015KT 10/00 A2965 RMK A01 T01000002  RH  051%=      5-min Rain = 0
KGO1 220809Z 26014KT 10/00 A2965 RMK A01 T01020002  RH  050%=      5-min Rain = 0
KGO1 220810Z 26016KT 10/00 A2965 RMK A01 T01010001  RH  050%=      5-min Rain = 0
KGO1 220811Z 27018KT 10/00 A2965 RMK A01 T01010002  RH  050%=      5-min Rain = 0
KGO1 220812Z 26017KT 10/00 A2965 RMK A01 T01010002  RH  050%=      5-min Rain = 0
KGO1 220813Z 25016KT 10/00 A2964 RMK A01 T01010002  RH  050%=      5-min Rain = 0
KGO1 220814Z 23015KT 10/00 A2964 RMK A01 T01010003  RH  051%=      5-min Rain = 0
KGO1 220815Z 23013KT 10/00 A2963 RMK A01 T01000002  RH  051%=      5-min Rain = 0
KGO1 220816Z 25014KT 10/00 A2964 RMK A01 T00990002  RH  051%=      5-min Rain = 0
KGO1 220817Z 27015KT 10/00 A2965 RMK A01 T00980002  RH  051%=      5-min Rain = 0
KGO1 220818Z 27013KT 10/00 A2966 RMK A01 T00960002  RH  052%=      5-min Rain = 0
KGO1 220819Z 26012KT 10/00 A2966 RMK A01 T00960002  RH  052%=      5-min Rain = 0
KGO1 220820Z 24012KT 09/00 A2965 RMK A01 T00940001  RH  052%=      5-min Rain = 0
KGO1 220821Z 22011KT 09/00 A2964 RMK A01 T00930001  RH  053%=      5-min Rain = 0
KGO1 220822Z 22011KT 09/00 A2963 RMK A01 T00930001  RH  053%=      5-min Rain = 0
KGO1 220823Z 22012KT 09/00 A2964 RMK A01 T00930001  RH  053%=      5-min Rain = 0
KGO1 220824Z 22013KT 09/00 A2964 RMK A01 T00930002  RH  053%=      5-min Rain = 0
KGO1 220825Z 23014KT 09/00 A2964 RMK A01 T00930002  RH  053%=      5-min Rain = 0
KGO1 220826Z 23014KT 09/00 A2964 RMK A01 T00940002  RH  053%=      5-min Rain = 0
KGO1 220827Z 23012KT 10/00 A2964 RMK A01 T00970002  RH  052%=      5-min Rain = 0
KGO1 220828Z 22012KT 10/00 A2964 RMK A01 T00970001  RH  051%=      5-min Rain = 0
KGO1 220829Z 22011KT 10/00 A2964 RMK A01 T00950001  RH  052%=      5-min Rain = 0
KGO1 220830Z 22011KT 09/00 A2964 RMK A01 T00940001  RH  052%=      5-min Rain = 0
KGO1 220831Z 23010KT 09/00 A2964 RMK A01 T00930000  RH  052%=      5-min Rain = 0
KGO1 220832Z 23011KT 09/00 A2964 RMK A01 T00910000  RH  053%=      5-min Rain = 0
KGO1 220833Z 23012KT 09/00 A2964 RMK A01 T00910000  RH  053%=      5-min Rain = 0
KGO1 220834Z 23012KT 09/00 A2964 RMK A01 T00910000  RH  053%=      5-min Rain = 0
KGO1 220835Z 23013KT 09/00 A2964 RMK A01 T00920001  RH  053%=      5-min Rain = 0
KGO1 220836Z 23013KT 09/00 A2964 RMK A01 T00930001  RH  053%=      5-min Rain = 0
KGO1 220837Z 23014KT 09/00 A2964 RMK A01 T00930001  RH  053%=      5-min Rain = 0
KGO1 220838Z 23014KT 09/00 A2964 RMK A01 T00930001  RH  053%=      5-min Rain = 0
KGO1 220839Z 23014KT 09/00 A2964 RMK A01 T00940001  RH  052%=      5-min Rain = 0
KGO1 220840Z 23014KT 09/00 A2963 RMK A01 T00940001  RH  052%=      5-min Rain = 0
KGO1 220841Z 22014KT 09/00 A2963 RMK A01 T00940001  RH  052%=      5-min Rain = 0
KGO1 220842Z 23015KT 09/00 A2963 RMK A01 T00940001  RH  052%=      5-min Rain = 0
KGO1 220843Z 22014KT 10/00 A2963 RMK A01 T00950002  RH  052%=      5-min Rain = 0
KGO1 220844Z 22016KT 10/00 A2964 RMK A01 T00950001  RH  052%=      5-min Rain = 0
KGO1 220845Z 22016KT 10/00 A2964 RMK A01 T00960001  RH  052%=      5-min Rain = 0
KGO1 220846Z 23016KT 10/00 A2963 RMK A01 T00970002  RH  052%=      5-min Rain = 0
KGO1 220847Z 22015KT 10/00 A2963 RMK A01 T00980002  RH  051%=      5-min Rain = 0
KGO1 220848Z 22016KT 10/00 A2963 RMK A01 T00990003  RH  051%=      5-min Rain = 0
KGO1 220849Z 22015KT 10/00 A2963 RMK A01 T00990003  RH  051%=      5-min Rain = 0
KGO1 220850Z 23017KT 10/00 A2963 RMK A01 T00990003  RH  051%=      5-min Rain = 0
KGO1 220851Z 23020KT 10/00 A2963 RMK A01 T00990003  RH  051%=      5-min Rain = 0
KGO1 220852Z 23017KT 10/00 A2963 RMK A01 T01000004  RH  051%=      5-min Rain = 0
KGO1 220853Z 23020KT 10/00 A2963 RMK A01 T01000004  RH  051%=      5-min Rain = 0
KGO1 220854Z 23018KT 10/00 A2963 RMK A01 T00990004  RH  051%=      5-min Rain = 0
KGO1 220855Z 23020KT 10/00 A2963 RMK A01 T00990003  RH  051%=      5-min Rain = 0
KGO1 220856Z 23019KT 10/00 A2963 RMK A01 T00990004  RH  052%=      5-min Rain = 0
KGO1 220857Z 23018KT 10/00 A2963 RMK A01 T00980003  RH  052%=      5-min Rain = 0
KGO1 220858Z 23017KT 10/00 A2963 RMK A01 T00970003  RH  052%=      5-min Rain = 0
KGO1 220859Z 23017KT 10/00 A2963 RMK A01 T00970003  RH  052%=      5-min Rain = 0
KGO1 220900Z 23017KT 10/00 A2963 RMK A01 T00960003  RH  052%=      5-min Rain = 0
KGO1 220901Z 23019KT 10/00 A2963 RMK A01 T00960003  RH  052%=      5-min Rain = 0
KGO1 220902Z 23017G22KT 10/00 A2963 RMK A01 T00960003  RH  052%=      5-min Rain = 0
KGO1 220903Z 23018KT 10/00 A2963 RMK A01 T00960003  RH  052%=      5-min Rain = 0
KGO1 220904Z 23018KT 10/00 A2963 RMK A01 T00960003  RH  052%=      5-min Rain = 0
KGO1 220905Z 24018KT 10/00 A2963 RMK A01 T00960002  RH  052%=      5-min Rain = 0
KGO1 220906Z 24018KT 10/00 A2963 RMK A01 T00960003  RH  052%=      5-min Rain = 0
KGO1 220907Z 24018KT 10/00 A2963 RMK A01 T00960002  RH  052%=      5-min Rain = 0
KGO1 220908Z 24018KT 10/00 A2963 RMK A01 T00950002  RH  052%=      5-min Rain = 0
KGO1 220909Z 23016KT 10/00 A2963 RMK A01 T00950002  RH  052%=      5-min Rain = 0
KGO1 220910Z 23017KT 10/00 A2963 RMK A01 T00950002  RH  052%=      5-min Rain = 0
KGO1 220911Z 23017KT 10/00 A2964 RMK A01 T00950002  RH  052%=      5-min Rain = 0
KGO1 220912Z 23017KT 09/00 A2964 RMK A01 T00940002  RH  053%=      5-min Rain = 0
KGO1 220913Z 23015KT 09/00 A2964 RMK A01 T00940002  RH  053%=      5-min Rain = 0
KGO1 220914Z 23015KT 09/00 A2964 RMK A01 T00930002  RH  053%=      5-min Rain = 0
KGO1 220915Z 23016KT 09/00 A2963 RMK A01 T00920001  RH  053%=      5-min Rain = 0
KGO1 220916Z 23015KT 09/00 A2963 RMK A01 T00920001  RH  053%=      5-min Rain = 0
KGO1 220917Z 23015KT 09/00 A2963 RMK A01 T00920001  RH  053%=      5-min Rain = 0
KGO1 220918Z 23016KT 09/00 A2963 RMK A01 T00920001  RH  053%=      5-min Rain = 0
KGO1 220919Z 23016KT 09/00 A2963 RMK A01 T00920001  RH  053%=      5-min Rain = 0
KGO1 220920Z 23017KT 09/00 A2963 RMK A01 T00920001  RH  053%=      5-min Rain = 0
KGO1 220921Z 22017KT 09/00 A2963 RMK A01 T00920001  RH  053%=      5-min Rain = 0
KGO1 220922Z 23016KT 09/00 A2963 RMK A01 T00920001  RH  053%=      5-min Rain = 0
KGO1 220923Z 23016KT 09/00 A2963 RMK A01 T00920001  RH  053%=      5-min Rain = 0
KGO1 220924Z 23016KT 09/00 A2964 RMK A01 T00910001  RH  053%=      5-min Rain = 0
KGO1 220925Z 23017KT 09/00 A2963 RMK A01 T00900001  RH  053%=      5-min Rain = 0
KGO1 220926Z 23016KT 09/00 A2964 RMK A01 T00910001  RH  053%=      5-min Rain = 0
KGO1 220927Z 23017KT 09/00 A2964 RMK A01 T00910001  RH  053%=      5-min Rain = 0
KGO1 220928Z 23016KT 09/00 A2964 RMK A01 T00910000  RH  053%=      5-min Rain = 0
KGO1 220929Z 23015KT 09/00 A2964 RMK A01 T00910000  RH  053%=      5-min Rain = 0
KGO1 220930Z 23015KT 09/00 A2964 RMK A01 T009000-0  RH  053%=      5-min Rain = 0
KGO1 220931Z 24015KT 09/00 A2964 RMK A01 T00900000  RH  053%=      5-min Rain = 0
KGO1 220932Z 24014KT 09/00 A2964 RMK A01 T00890000  RH  054%=      5-min Rain = 0
KGO1 220933Z 24015KT 09/00 A2964 RMK A01 T008900-0  RH  054%=      5-min Rain = 0
KGO1 220934Z 24014KT 09/00 A2964 RMK A01 T008800-0  RH  054%=      5-min Rain = 0
KGO1 220935Z 24014KT 09/00 A2964 RMK A01 T008800-0  RH  054%=      5-min Rain = 0
KGO1 220936Z 24014KT 09/00 A2964 RMK A01 T008800-0  RH  054%=      5-min Rain = 0
KGO1 220937Z 24014KT 09/00 A2964 RMK A01 T008900-0  RH  054%=      5-min Rain = 0
KGO1 220938Z 24014KT 09/M00 A2964 RMK A01 T00881001  RH  054%=      5-min Rain = 0
KGO1 220939Z 24013KT 09/M00 A2964 RMK A01 T00881001  RH  054%=      5-min Rain = 0
KGO1 220940Z 24013KT 09/M00 A2964 RMK A01 T00871001  RH  054%=      5-min Rain = 0
KGO1 220941Z 24013KT 09/M00 A2964 RMK A01 T00871001  RH  054%=      5-min Rain = 0
KGO1 220942Z 24014KT 09/M00 A2964 RMK A01 T00871001  RH  054%=      5-min Rain = 0
KGO1 220943Z 25013KT 09/M00 A2964 RMK A01 T00871001  RH  054%=      5-min Rain = 0
KGO1 220944Z 25012KT 09/M00 A2964 RMK A01 T00871001  RH  054%=      5-min Rain = 0
KGO1 220945Z 25013KT 09/M00 A2964 RMK A01 T00861002  RH  054%=      5-min Rain = 0
KGO1 220946Z 25013KT 09/M00 A2964 RMK A01 T00861001  RH  054%=      5-min Rain = 0
KGO1 220947Z 25012KT 09/M00 A2964 RMK A01 T00861002  RH  054%=      5-min Rain = 0
KGO1 220948Z 25011KT 09/M00 A2964 RMK A01 T00851002  RH  054%=      5-min Rain = 0
KGO1 220949Z 25011KT 08/M00 A2964 RMK A01 T00841002  RH  055%=      5-min Rain = 0
KGO1 220950Z 25012KT 08/M00 A2964 RMK A01 T00831002  RH  055%=      5-min Rain = 0
KGO1 220951Z 25012KT 08/M00 A2964 RMK A01 T00831002  RH  055%=      5-min Rain = 0
KGO1 220952Z 25013KT 08/M00 A2964 RMK A01 T00831002  RH  055%=      5-min Rain = 0
KGO1 220953Z 25012KT 08/M00 A2964 RMK A01 T00821002  RH  055%=      5-min Rain = 0
KGO1 220954Z 25012KT 08/M00 A2964 RMK A01 T00821002  RH  055%=      5-min Rain = 0
KGO1 220955Z 26012KT 08/M00 A2964 RMK A01 T00821003  RH  055%=      5-min Rain = 0
KGO1 220956Z 25013KT 08/M00 A2964 RMK A01 T00811003  RH  055%=      5-min Rain = 0
KGO1 220957Z 25014KT 08/M00 A2964 RMK A01 T00811003  RH  055%=      5-min Rain = 0
KGO1 220958Z 25014KT 08/M00 A2964 RMK A01 T00811003  RH  055%=      5-min Rain = 0
KGO1 220959Z 25014KT 08/M00 A2964 RMK A01 T00821003  RH  055%=      5-min Rain = 0
KGO1 221000Z 25014KT 08/M00 A2964 RMK A01 T00831003  RH  055%=      5-min Rain = 0
KGO1 221001Z 25014KT 08/M00 A2964 RMK A01 T00831003  RH  055%=      5-min Rain = 0
KGO1 221002Z 25014KT 08/M00 A2964 RMK A01 T00831003  RH  055%=      5-min Rain = 0
KGO1 221003Z 25013KT 08/M00 A2964 RMK A01 T00831003  RH  055%=      5-min Rain = 0
KGO1 221004Z 25013KT 08/M00 A2964 RMK A01 T00821003  RH  055%=      5-min Rain = 0
KGO1 221005Z 25012KT 08/M00 A2964 RMK A01 T00811003  RH  055%=      5-min Rain = 0
KGO1 221006Z 25013KT 08/M00 A2964 RMK A01 T00801003  RH  056%=      5-min Rain = 0
KGO1 221007Z 25013KT 08/M00 A2964 RMK A01 T00801003  RH  056%=      5-min Rain = 0
KGO1 221008Z 25013KT 08/M00 A2964 RMK A01 T00801003  RH  056%=      5-min Rain = 0
KGO1 221009Z 25012KT 08/M00 A2964 RMK A01 T00801003  RH  056%=      5-min Rain = 0
KGO1 221010Z 26013KT 08/M00 A2964 RMK A01 T00801003  RH  056%=      5-min Rain = 0
KGO1 221011Z 26013KT 08/M00 A2964 RMK A01 T00801003  RH  056%=      5-min Rain = 0
KGO1 221012Z 26013KT 08/M00 A2964 RMK A01 T00801003  RH  056%=      5-min Rain = 0
KGO1 221013Z 26012KT 08/M00 A2964 RMK A01 T00801003  RH  056%=      5-min Rain = 0
KGO1 221014Z 26012KT 08/M00 A2965 RMK A01 T00791004  RH  056%=      5-min Rain = 0
KGO1 221015Z 26011KT 08/M00 A2965 RMK A01 T00781004  RH  056%=      5-min Rain = 0
KGO1 221016Z 27012KT 08/M00 A2965 RMK A01 T00781004  RH  056%=      5-min Rain = 0
KGO1 221017Z 27011KT 08/M00 A2965 RMK A01 T00781004  RH  056%=      5-min Rain = 0
KGO1 221018Z 27010KT 08/M00 A2965 RMK A01 T00771004  RH  056%=      5-min Rain = 0
KGO1 221019Z 27011KT 08/M00 A2965 RMK A01 T00761004  RH  057%=      5-min Rain = 0
KGO1 221020Z 27012KT 08/M01 A2965 RMK A01 T00751005  RH  057%=      5-min Rain = 0
KGO1 221021Z 26013KT 08/M01 A2965 RMK A01 T00751005  RH  057%=      5-min Rain = 0
KGO1 221022Z 27012KT 08/M01 A2965 RMK A01 T00751005  RH  057%=      5-min Rain = 0
KGO1 221023Z 27012KT 08/M01 A2965 RMK A01 T00761005  RH  056%=      5-min Rain = 0
KGO1 221024Z 27011KT 08/M01 A2965 RMK A01 T00761006  RH  056%=      5-min Rain = 0
KGO1 221025Z 27011KT 08/M01 A2965 RMK A01 T00751007  RH  056%=      5-min Rain = 0
KGO1 221026Z 27009KT 07/M01 A2965 RMK A01 T00731007  RH  057%=      5-min Rain = 0
KGO1 221027Z 28009KT 07/M01 A2965 RMK A01 T00721007  RH  057%=      5-min Rain = 0
KGO1 221028Z 28009KT 07/M01 A2965 RMK A01 T00691009  RH  058%=      5-min Rain = 0
KGO1 221029Z 28008KT 07/M01 A2965 RMK A01 T00671009  RH  058%=      5-min Rain = 0
KGO1 221030Z 28008KT 07/M01 A2965 RMK A01 T00661008  RH  059%=      5-min Rain = 0
KGO1 221031Z 28009KT 07/M01 A2966 RMK A01 T00651009  RH  059%=      5-min Rain = 0
KGO1 221032Z 28009KT 06/M01 A2966 RMK A01 T00641010  RH  059%=      5-min Rain = 0
KGO1 221033Z 28009KT 06/M01 A2966 RMK A01 T00641010  RH  059%=      5-min Rain = 0
KGO1 221034Z 28009KT 06/M01 A2966 RMK A01 T00621011  RH  060%=      5-min Rain = 0
KGO1 221035Z 28009KT 06/M01 A2966 RMK A01 T00611011  RH  060%=      5-min Rain = 0
KGO1 221036Z 28010KT 06/M01 A2966 RMK A01 T00601012  RH  060%=      5-min Rain = 0
KGO1 221037Z 28010KT 06/M01 A2966 RMK A01 T00601012  RH  060%=      5-min Rain = 0
KGO1 221038Z 28010KT 06/M01 A2966 RMK A01 T00611012  RH  060%=      5-min Rain = 0
KGO1 221039Z 28010KT 06/M01 A2967 RMK A01 T00611012  RH  059%=      5-min Rain = 0
KGO1 221040Z 28010KT 06/M01 A2967 RMK A01 T00611013  RH  059%=      5-min Rain = 0
KGO1 221041Z 28010KT 06/M01 A2967 RMK A01 T00611013  RH  059%=      5-min Rain = 0
KGO1 221042Z 28010KT 06/M01 A2967 RMK A01 T00601014  RH  059%=      5-min Rain = 0
KGO1 221043Z 28010KT 06/M01 A2967 RMK A01 T00591014  RH  059%=      5-min Rain = 0
KGO1 221044Z 28011KT 06/M02 A2967 RMK A01 T00581015  RH  059%=      5-min Rain = 0
KGO1 221045Z 28011KT 06/M02 A2967 RMK A01 T00571015  RH  060%=      5-min Rain = 0
KGO1 221046Z 28011KT 06/M02 A2967 RMK A01 T00571015  RH  060%=      5-min Rain = 0
KGO1 221047Z 28012KT 06/M02 A2967 RMK A01 T00571016  RH  060%=      5-min Rain = 0
KGO1 221048Z 28011KT 06/M02 A2967 RMK A01 T00571016  RH  059%=      5-min Rain = 0
KGO1 221049Z 28012KT 06/M02 A2967 RMK A01 T00581017  RH  058%=      5-min Rain = 0
KGO1 221050Z 28013KT 06/M02 A2967 RMK A01 T00591018  RH  058%=      5-min Rain = 0
KGO1 221051Z 28012KT 06/M02 A2967 RMK A01 T00601018  RH  058%=      5-min Rain = 0
KGO1 221052Z 28012KT 06/M02 A2967 RMK A01 T00601018  RH  057%=      5-min Rain = 0
KGO1 221053Z 28012KT 06/M02 A2967 RMK A01 T00601018  RH  057%=      5-min Rain = 0
KGO1 221054Z 28012KT 06/M02 A2967 RMK A01 T00601019  RH  057%=      5-min Rain = 0
KGO1 221055Z 28012KT 06/M02 A2967 RMK A01 T00591019  RH  057%=      5-min Rain = 0
KGO1 221056Z 28011KT 06/M02 A2968 RMK A01 T00591019  RH  057%=      5-min Rain = 0
KGO1 221057Z 28011KT 06/M02 A2968 RMK A01 T00591020  RH  057%=      5-min Rain = 0
KGO1 221058Z 29011KT 06/M02 A2968 RMK A01 T00581020  RH  057%=      5-min Rain = 0
KGO1 221059Z 29010KT 06/M02 A2968 RMK A01 T00571021  RH  057%=      5-min Rain = 0
KGO1 221100Z 29009KT 06/M02 A2968 RMK A01 T00561021  RH  058%=      5-min Rain = 0
KGO1 221101Z 29009KT 06/M02 A2968 RMK A01 T00551021  RH  058%=      5-min Rain = 0
KGO1 221102Z 29009KT 05/M02 A2968 RMK A01 T00531022  RH  059%=      5-min Rain = 0
KGO1 221103Z 30008KT 05/M02 A2968 RMK A01 T00511022  RH  059%=      5-min Rain = 0
KGO1 221104Z 30008KT 05/M02 A2968 RMK A01 T00501022  RH  060%=      5-min Rain = 0
KGO1 221105Z 30009KT 05/M02 A2968 RMK A01 T00481022  RH  061%=      5-min Rain = 0
KGO1 221106Z 30008KT 05/M02 A2968 RMK A01 T00461022  RH  061%=      5-min Rain = 0
KGO1 221107Z 30008KT 05/M02 A2968 RMK A01 T00451022  RH  062%=      5-min Rain = 0
KGO1 221108Z 30008KT 04/M02 A2968 RMK A01 T00431023  RH  062%=      5-min Rain = 0
KGO1 221109Z 30009KT 04/M02 A2968 RMK A01 T00421023  RH  063%=      5-min Rain = 0
KGO1 221110Z 30008KT 04/M02 A2968 RMK A01 T00411024  RH  063%=      5-min Rain = 0
KGO1 221111Z 30008KT 04/M02 A2968 RMK A01 T00391024  RH  063%=      5-min Rain = 0
KGO1 221112Z 30009KT 04/M02 A2968 RMK A01 T00391024  RH  064%=      5-min Rain = 0
KGO1 221113Z 30009KT 04/M02 A2968 RMK A01 T00391024  RH  064%=      5-min Rain = 0
KGO1 221114Z 30009KT 04/M02 A2968 RMK A01 T00381024  RH  064%=      5-min Rain = 0
KGO1 221115Z 30009KT 04/M02 A2968 RMK A01 T00371024  RH  064%=      5-min Rain = 0
KGO1 221116Z 29008KT 04/M03 A2968 RMK A01 T00361025  RH  064%=      5-min Rain = 0
KGO1 221117Z 29008KT 04/M03 A2968 RMK A01 T00351026  RH  064%=      5-min Rain = 0
KGO1 221118Z 29009KT 03/M03 A2968 RMK A01 T00341026  RH  065%=      5-min Rain = 0
KGO1 221119Z 29009KT 03/M03 A2968 RMK A01 T00341027  RH  065%=      5-min Rain = 0
KGO1 221120Z 29009KT 03/M03 A2968 RMK A01 T00331026  RH  065%=      5-min Rain = 0
KGO1 221121Z 29009KT 03/M03 A2968 RMK A01 T00321027  RH  065%=      5-min Rain = 0
KGO1 221122Z 29009KT 03/M03 A2968 RMK A01 T00321027  RH  065%=      5-min Rain = 0
KGO1 221123Z 29009KT 03/M03 A2968 RMK A01 T00321027  RH  066%=      5-min Rain = 0
KGO1 221124Z 29008KT 03/M03 A2968 RMK A01 T00311027  RH  066%=      5-min Rain = 0
KGO1 221125Z 29008KT 03/M03 A2968 RMK A01 T00311027  RH  066%=      5-min Rain = 0
KGO1 221126Z 30008KT 03/M03 A2968 RMK A01 T00311027  RH  065%=      5-min Rain = 0
KGO1 221127Z 29009KT 03/M03 A2968 RMK A01 T00301028  RH  066%=      5-min Rain = 0
KGO1 221128Z 29009KT 03/M03 A2968 RMK A01 T00291028  RH  066%=      5-min Rain = 0
KGO1 221129Z 29009KT 03/M03 A2968 RMK A01 T00301028  RH  066%=      5-min Rain = 0
KGO1 221130Z 30009KT 03/M03 A2968 RMK A01 T00291029  RH  066%=      5-min Rain = 0
KGO1 221131Z 30010KT 03/M03 A2968 RMK A01 T00291028  RH  066%=      5-min Rain = 0
KGO1 221132Z 30010KT 03/M03 A2968 RMK A01 T00291028  RH  066%=      5-min Rain = 0
KGO1 221133Z 29010KT 03/M03 A2968 RMK A01 T00291028  RH  066%=      5-min Rain = 0
KGO1 221134Z 29010KT 03/M03 A2969 RMK A01 T00291029  RH  066%=      5-min Rain = 0
KGO1 221135Z 29010KT 03/M03 A2969 RMK A01 T00291029  RH  066%=      5-min Rain = 0
KGO1 221136Z 29010KT 03/M03 A2969 RMK A01 T00281029  RH  066%=      5-min Rain = 0
KGO1 221137Z 29010KT 03/M03 A2969 RMK A01 T00281029  RH  066%=      5-min Rain = 0
KGO1 221138Z 29009KT 03/M03 A2969 RMK A01 T00281029  RH  066%=      5-min Rain = 0
KGO1 221139Z 29009KT 03/M03 A2969 RMK A01 T00281029  RH  066%=      5-min Rain = 0
KGO1 221140Z 29010KT 03/M03 A2969 RMK A01 T00291028  RH  066%=      5-min Rain = 0
KGO1 221141Z 29010KT 03/M03 A2969 RMK A01 T00301028  RH  066%=      5-min Rain = 0
KGO1 221142Z 29009KT 03/M03 A2969 RMK A01 T00311028  RH  065%=      5-min Rain = 0
KGO1 221143Z 29010KT 03/M03 A2969 RMK A01 T00311028  RH  065%=      5-min Rain = 0
KGO1 221144Z 29010KT 03/M03 A2969 RMK A01 T00321028  RH  065%=      5-min Rain = 0
KGO1 221145Z 29010KT 03/M03 A2969 RMK A01 T00321028  RH  065%=      5-min Rain = 0
KGO1 221146Z 29010KT 03/M03 A2969 RMK A01 T00321028  RH  065%=      5-min Rain = 0
KGO1 221147Z 29010KT 03/M03 A2969 RMK A01 T00331028  RH  064%=      5-min Rain = 0
KGO1 221148Z 29010KT 03/M03 A2969 RMK A01 T00341028  RH  064%=      5-min Rain = 0
KGO1 221149Z 29010KT 03/M03 A2969 RMK A01 T00341028  RH  064%=      5-min Rain = 0
KGO1 221150Z 29011KT 04/M03 A2969 RMK A01 T00351028  RH  064%=      5-min Rain = 0
KGO1 221151Z 29010KT 04/M03 A2969 RMK A01 T00351028  RH  064%=      5-min Rain = 0
KGO1 221152Z 29010KT 03/M03 A2969 RMK A01 T00341028  RH  064%=      5-min Rain = 0
KGO1 221153Z 29010KT 03/M03 A2969 RMK A01 T00341028  RH  064%=      5-min Rain = 0
KGO1 221154Z 29010KT 03/M03 A2969 RMK A01 T00341028  RH  064%=      5-min Rain = 0
KGO1 221155Z 29010KT 03/M03 A2969 RMK A01 T00341028  RH  064%=      5-min Rain = 0
KGO1 221156Z 29010KT 03/M03 A2969 RMK A01 T00341028  RH  064%=      5-min Rain = 0
KGO1 221157Z 29010KT 03/M03 A2968 RMK A01 T00341028  RH  064%=      5-min Rain = 0
KGO1 221158Z 30010KT 03/M03 A2968 RMK A01 T00341028  RH  064%=      5-min Rain = 0
KGO1 221159Z 30009KT 03/M03 A2968 RMK A01 T00331028  RH  064%=      5-min Rain = 0
KGO1 221200Z 30009KT 03/M03 A2968 RMK A01 T00331028  RH  064%=      5-min Rain = 0
KGO1 221201Z 30009KT 03/M03 A2968 RMK A01 T00321028  RH  065%=      5-min Rain = 0
KGO1 221202Z 30010KT 03/M03 A2968 RMK A01 T00321028  RH  065%=      5-min Rain = 0
KGO1 221203Z 30009KT 03/M03 A2968 RMK A01 T00321028  RH  065%=      5-min Rain = 0
KGO1 221204Z 30009KT 03/M03 A2968 RMK A01 T00321028  RH  065%=      5-min Rain = 0
KGO1 221205Z 30009KT 03/M03 A2968 RMK A01 T00321028  RH  065%=      5-min Rain = 0
KGO1 221206Z 29009KT 03/M03 A2968 RMK A01 T00311028  RH  065%=      5-min Rain = 0
KGO1 221207Z 30009KT 03/M03 A2968 RMK A01 T00311028  RH  065%=      5-min Rain = 0
KGO1 221208Z 30009KT 03/M03 A2968 RMK A01 T00311028  RH  065%=      5-min Rain = 0
KGO1 221209Z 29009KT 03/M03 A2968 RMK A01 T00301028  RH  065%=      5-min Rain = 0
KGO1 221210Z 29009KT 03/M03 A2968 RMK A01 T00301029  RH  065%=      5-min Rain = 0
KGO1 221211Z 29010KT 03/M03 A2968 RMK A01 T00291029  RH  065%=      5-min Rain = 0
KGO1 221212Z 29010KT 03/M03 A2968 RMK A01 T00291029  RH  066%=      5-min Rain = 0
KGO1 221213Z 29010KT 03/M03 A2968 RMK A01 T00291029  RH  066%=      5-min Rain = 0
KGO1 221214Z 29010KT 03/M03 A2968 RMK A01 T00291029  RH  066%=      5-min Rain = 0
KGO1 221215Z 28011KT 03/M03 A2968 RMK A01 T00291029  RH  066%=      5-min Rain = 0
KGO1 221216Z 28011KT 03/M03 A2968 RMK A01 T00291029  RH  066%=      5-min Rain = 0
KGO1 221217Z 28010KT 03/M03 A2968 RMK A01 T00291029  RH  066%=      5-min Rain = 0
KGO1 221218Z 29011KT 03/M03 A2968 RMK A01 T00301029  RH  065%=      5-min Rain = 0
KGO1 221219Z 28011KT 03/M03 A2968 RMK A01 T00301028  RH  065%=      5-min Rain = 0
KGO1 221220Z 29012KT 03/M03 A2968 RMK A01 T00301029  RH  065%=      5-min Rain = 0
KGO1 221221Z 29011KT 03/M03 A2968 RMK A01 T00301029  RH  065%=      5-min Rain = 0
KGO1 221222Z 29011KT 03/M03 A2968 RMK A01 T00301029  RH  065%=      5-min Rain = 0
KGO1 221223Z 29011KT 03/M03 A2968 RMK A01 T00301029  RH  065%=      5-min Rain = 0
KGO1 221224Z 29011KT 03/M03 A2968 RMK A01 T00301029  RH  065%=      5-min Rain = 0
KGO1 221225Z 29011KT 03/M03 A2968 RMK A01 T00301029  RH  065%=      5-min Rain = 0
KGO1 221226Z 29011KT 03/M03 A2968 RMK A01 T00301029  RH  065%=      5-min Rain = 0
KGO1 221227Z 29010KT 03/M03 A2968 RMK A01 T00301029  RH  065%=      5-min Rain = 0
KGO1 221228Z 29011KT 03/M03 A2968 RMK A01 T00291029  RH  066%=      5-min Rain = 0
KGO1 221229Z 30010KT 03/M03 A2967 RMK A01 T00291029  RH  066%=      5-min Rain = 0
KGO1 221230Z 30011KT 03/M03 A2967 RMK A01 T00281029  RH  066%=      5-min Rain = 0
KGO1 221231Z 29011KT 03/M03 A2967 RMK A01 T00281029  RH  066%=      5-min Rain = 0
KGO1 221232Z 29011KT 03/M03 A2967 RMK A01 T00281029  RH  066%=      5-min Rain = 0
KGO1 221233Z 29010KT 03/M03 A2967 RMK A01 T00281029  RH  066%=      5-min Rain = 0
KGO1 221234Z 30010KT 03/M03 A2967 RMK A01 T00271030  RH  066%=      5-min Rain = 0
KGO1 221235Z 30009KT 03/M03 A2967 RMK A01 T00261030  RH  066%=      5-min Rain = 0
KGO1 221236Z 30009KT 03/M03 A2967 RMK A01 T00261030  RH  067%=      5-min Rain = 0
KGO1 221237Z 30009KT 03/M03 A2967 RMK A01 T00251030  RH  067%=      5-min Rain = 0
KGO1 221238Z 30009KT 03/M03 A2967 RMK A01 T00251030  RH  067%=      5-min Rain = 0
KGO1 221239Z 30010KT 03/M03 A2967 RMK A01 T00251030  RH  067%=      5-min Rain = 0
KGO1 221240Z 30010KT 02/M03 A2967 RMK A01 T00241031  RH  067%=      5-min Rain = 0
KGO1 221241Z 30010KT 03/M03 A2967 RMK A01 T00251030  RH  067%=      5-min Rain = 0
KGO1 221242Z 30010KT 02/M03 A2967 RMK A01 T00241030  RH  067%=      5-min Rain = 0
KGO1 221243Z 30010KT 02/M03 A2967 RMK A01 T00231031  RH  067%=      5-min Rain = 0
KGO1 221244Z 30011KT 02/M03 A2967 RMK A01 T00231031  RH  068%=      5-min Rain = 0
KGO1 221245Z 29011KT 02/M03 A2967 RMK A01 T00221031  RH  068%=      5-min Rain = 0
KGO1 221246Z 29010KT 02/M03 A2967 RMK A01 T00211031  RH  068%=      5-min Rain = 0
KGO1 221247Z 29012KT 02/M03 A2967 RMK A01 T00211031  RH  068%=      5-min Rain = 0
KGO1 221248Z 28012KT 02/M03 A2967 RMK A01 T00211031  RH  068%=      5-min Rain = 0
KGO1 221249Z 29012KT 02/M03 A2967 RMK A01 T00211031  RH  068%=      5-min Rain = 0
KGO1 221250Z 29012KT 02/M03 A2967 RMK A01 T00221031  RH  068%=      5-min Rain = 0
KGO1 221251Z 29013KT 02/M03 A2968 RMK A01 T00221031  RH  068%=      5-min Rain = 0
KGO1 221252Z 28013KT 02/M03 A2968 RMK A01 T00231031  RH  067%=      5-min Rain = 0
KGO1 221253Z 29013KT 02/M03 A2968 RMK A01 T00241031  RH  067%=      5-min Rain = 0
KGO1 221254Z 28013KT 03/M03 A2968 RMK A01 T00251031  RH  067%=      5-min Rain = 0
KGO1 221255Z 28013KT 02/M03 A2968 RMK A01 T00241032  RH  067%=      5-min Rain = 0
KGO1 221256Z 28013KT 03/M03 A2968 RMK A01 T00251032  RH  066%=      5-min Rain = 0
KGO1 221257Z 28014KT 03/M03 A2968 RMK A01 T00261032  RH  066%=      5-min Rain = 0
KGO1 221258Z 28013KT 03/M03 A2968 RMK A01 T00261032  RH  066%=      5-min Rain = 0
KGO1 221259Z 28013KT 03/M03 A2968 RMK A01 T00261032  RH  065%=      5-min Rain = 0
KGO1 221300Z 28014KT 03/M03 A2968 RMK A01 T00271032  RH  065%=      5-min Rain = 0
KGO1 221301Z 28014KT 03/M03 A2968 RMK A01 T00261032  RH  065%=      5-min Rain = 0
KGO1 221302Z 28014KT 03/M03 A2968 RMK A01 T00261032  RH  065%=      5-min Rain = 0
KGO1 221303Z 28014KT 03/M03 A2968 RMK A01 T00271033  RH  065%=      5-min Rain = 0
KGO1 221304Z 28013KT 03/M03 A2968 RMK A01 T00271032  RH  065%=      5-min Rain = 0
KGO1 221305Z 28013KT 03/M03 A2968 RMK A01 T00271032  RH  065%=      5-min Rain = 0
KGO1 221306Z 28013KT 03/M03 A2969 RMK A01 T00271033  RH  065%=      5-min Rain = 0
KGO1 221307Z 28013KT 03/M03 A2969 RMK A01 T00271033  RH  065%=      5-min Rain = 0
KGO1 221308Z 28013KT 03/M03 A2969 RMK A01 T00271033  RH  065%=      5-min Rain = 0
KGO1 221309Z 28013KT 03/M03 A2969 RMK A01 T00271032  RH  065%=      5-min Rain = 0
KGO1 221310Z 28013KT 03/M03 A2969 RMK A01 T00271032  RH  065%=      5-min Rain = 0
KGO1 221311Z 29013KT 03/M03 A2969 RMK A01 T00271032  RH  065%=      5-min Rain = 0
KGO1 221312Z 29012KT 03/M03 A2969 RMK A01 T00271032  RH  065%=      5-min Rain = 0
KGO1 221313Z 29013KT 03/M03 A297 RMK A01 T00261032  RH  066%=      5-min Rain = 0
KGO1 221314Z 30012KT 03/M03 A297 RMK A01 T00251033  RH  066%=      5-min Rain = 0
KGO1 221315Z 31012KT 02/M03 A2971 RMK A01 T00241033  RH  066%=      5-min Rain = 0
KGO1 221316Z 32014KT 02/M03 A2972 RMK A01 T00221032  RH  067%=      5-min Rain = 0
KGO1 221317Z 35015KT 02/M03 A2973 RMK A01 T00201032  RH  068%=      5-min Rain = 0
KGO1 221318Z 34012KT 02/M03 A2973 RMK A01 T00181033  RH  069%=      5-min Rain = 0
KGO1 221319Z 34012KT 02/M03 A2973 RMK A01 T00171033  RH  069%=      5-min Rain = 0
KGO1 221320Z 34014KT 02/M03 A2973 RMK A01 T00171034  RH  069%=      5-min Rain = 0
KGO1 221321Z 33017KT 02/M04 A2973 RMK A01 T00181035  RH  068%=      5-min Rain = 0
KGO1 221322Z 33017G22KT 02/M04 A2973 RMK A01 T00201035  RH  067%=      5-min Rain = 0
KGO1 221323Z 34018KT 02/M04 A2973 RMK A01 T00201036  RH  066%=      5-min Rain = 0
KGO1 221324Z 34016KT 02/M04 A2974 RMK A01 T00191036  RH  067%=      5-min Rain = 0
KGO1 221325Z 34020G26KT 02/M03 A2974 RMK A01 T00171034  RH  069%=      5-min Rain = 0
KGO1 221326Z 34022KT 01/M03 A2974 RMK A01 T00141029  RH  073%=      5-min Rain = 0
KGO1 221327Z 35020G25KT 01/M03 A2974 RMK A01 T00121027  RH  075%=      5-min Rain = 0
KGO1 221328Z 34022KT 01/M03 A2975 RMK A01 T00101026  RH  077%=      5-min Rain = 0
KGO1 221329Z 34022KT 01/M03 A2975 RMK A01 T00081025  RH  078%=      5-min Rain = 0
KGO1 221330Z 34020KT 01/M03 A2975 RMK A01 T00061026  RH  079%=      5-min Rain = 0
KGO1 221331Z 35017KT 00/M03 A2975 RMK A01 T00041025  RH  081%=      5-min Rain = 0
KGO1 221332Z 35020G29KT 00/M03 A2975 RMK A01 T00021026  RH  081%=      5-min Rain = 0
KGO1 221333Z 35026KT M00/M03 A2976 RMK A01 T10011026  RH  083%=      5-min Rain = 0
KGO1 221334Z 34023KT M00/M03 A2976 RMK A01 T10041025  RH  086%=      5-min Rain = 0
KGO1 221335Z 35020KT M01/M02 A2976 RMK A01 T10051023  RH  088%=      5-min Rain = 0
KGO1 221336Z 34021KT M01/M02 A2976 RMK A01 T10061021  RH  089%=      5-min Rain = 0
KGO1 221337Z 34021KT M01/M02 A2976 RMK A01 T10061020  RH  090%=      5-min Rain = 0
KGO1 221338Z 35019G24KT M01/M02 A2976 RMK A01 T10061019  RH  091%=      5-min Rain = 0
KGO1 221339Z 35018G23KT M01/M02 A2976 RMK A01 T10061018  RH  091%=      5-min Rain = 0
KGO1 221340Z 34017G23KT M01/M02 A2976 RMK A01 T10061018  RH  092%=      5-min Rain = 0
KGO1 221341Z 35020KT M01/M02 A2976 RMK A01 T10061018  RH  092%=      5-min Rain = 0
KGO1 221342Z 34021KT M01/M02 A2976 RMK A01 T10051016  RH  092%=      5-min Rain = 0
KGO1 221343Z 35022KT M01/M02 A2976 RMK A01 T10051015  RH  093%=      5-min Rain = 0
KGO1 221344Z 35021KT M01/M02 A2976 RMK A01 T10051015  RH  093%=      5-min Rain = 0
KGO1 221345Z 35019KT M00/M01 A2976 RMK A01 T10041014  RH  093%=      5-min Rain = 0
KGO1 221346Z 35022KT M00/M01 A2976 RMK A01 T10041014  RH  093%=      5-min Rain = 0
KGO1 221347Z 35025KT M00/M01 A2976 RMK A01 T10031013  RH  093%=      5-min Rain = 0
KGO1 221348Z 35024KT M00/M01 A2976 RMK A01 T10031012  RH  093%=      5-min Rain = 0
KGO1 221349Z 35026KT M00/M01 A2976 RMK A01 T10021012  RH  093%=      5-min Rain = 0
KGO1 221350Z 35021KT M00/M01 A2976 RMK A01 T10021011  RH  093%=      5-min Rain = 0
KGO1 221351Z 35019KT M00/M01 A2976 RMK A01 T10011011  RH  093%=      5-min Rain = 0
KGO1 221352Z 35020KT M00/M01 A2977 RMK A01 T10011011  RH  093%=      5-min Rain = 0
KGO1 221353Z 35018KT M00/M01 A2977 RMK A01 T10011011  RH  093%=      5-min Rain = 0
KGO1 221354Z 35016KT 00/01 A2977 RMK A01 T00-00-10  RH  093%=      5-min Rain = 0
KGO1 221355Z 35019G24KT 00/01 A2976 RMK A01 T00-00-11  RH  093%=      5-min Rain = 0
KGO1 221356Z 35018KT 00/01 A2977 RMK A01 T00000-10  RH  093%=      5-min Rain = 0
KGO1 221357Z 35020G26KT 00/M01 A2977 RMK A01 T00011010  RH  093%=      5-min Rain = 0
KGO1 221358Z 35020KT 00/M01 A2977 RMK A01 T00011010  RH  092%=      5-min Rain = 0
KGO1 221359Z 35018KT 00/M01 A2977 RMK A01 T00011010  RH  092%=      5-min Rain = 0
KGO1 221400Z 35019G26KT 00/M01 A2977 RMK A01 T00011010  RH  092%=      5-min Rain = 0
KGO1 221401Z 35022KT 00/M01 A2977 RMK A01 T00011010  RH  092%=      5-min Rain = 0
KGO1 221402Z 35023KT 00/M01 A2977 RMK A01 T00011010  RH  092%=      5-min Rain = 0
KGO1 221403Z 35022KT 00/M01 A2977 RMK A01 T00011010  RH  092%=      5-min Rain = 0
KGO1 221404Z 36023KT 00/M01 A2977 RMK A01 T00011010  RH  092%=      5-min Rain = 0
KGO1 221405Z 36024G29KT 00/M01 A2977 RMK A01 T00011011  RH  092%=      5-min Rain = 0
KGO1 221406Z 35018KT 00/M01 A2977 RMK A01 T00011011  RH  091%=      5-min Rain = 0
KGO1 221407Z 35021KT 00/M01 A2977 RMK A01 T00021011  RH  091%=      5-min Rain = 0
KGO1 221408Z 35022KT 00/M01 A2977 RMK A01 T00021011  RH  091%=      5-min Rain = 0
KGO1 221409Z 35022KT 00/M01 A2977 RMK A01 T00021012  RH  091%=      5-min Rain = 0
KGO1 221410Z 35023G28KT 00/M01 A2977 RMK A01 T00021012  RH  091%=      5-min Rain = 0
KGO1 221411Z 35025G30KT 00/M01 A2977 RMK A01 T00021012  RH  091%=      5-min Rain = 0
KGO1 221412Z 35021KT 00/M01 A2977 RMK A01 T00021012  RH  091%=      5-min Rain = 0
KGO1 221413Z 35021KT 00/M01 A2977 RMK A01 T00021012  RH  091%=      5-min Rain = 0
KGO1 221414Z 35024KT 00/M01 A2977 RMK A01 T00021012  RH  091%=      5-min Rain = 0
KGO1 221415Z 35023KT 00/M01 A2977 RMK A01 T00021012  RH  091%=      5-min Rain = 0
KGO1 221416Z 35023KT 00/M01 A2977 RMK A01 T00011012  RH  091%=      5-min Rain = 0
KGO1 221417Z 35022G27KT 00/M01 A2977 RMK A01 T00011012  RH  091%=      5-min Rain = 0
KGO1 221418Z 34022G27KT 00/M01 A2977 RMK A01 T00011012  RH  091%=      5-min Rain = 0
KGO1 221419Z 35019G26KT 00/M01 A2977 RMK A01 T00011012  RH  091%=      5-min Rain = 0
KGO1 221420Z 34017KT 00/M01 A2978 RMK A01 T00011012  RH  091%=      5-min Rain = 0
KGO1 221421Z 35017G22KT 00/M01 A2978 RMK A01 T00011012  RH  091%=      5-min Rain = 0
KGO1 221422Z 35017G22KT 00/M01 A2978 RMK A01 T00011012  RH  091%=      5-min Rain = 0
KGO1 221423Z 34018KT 00/M01 A2979 RMK A01 T00021012  RH  091%=      5-min Rain = 0
KGO1 221424Z 35022KT 00/M01 A2979 RMK A01 T00021012  RH  091%=      5-min Rain = 0
KGO1 221425Z 35019KT 00/M01 A2979 RMK A01 T00021012  RH  090%=      5-min Rain = 0
KGO1 221426Z 35022KT 00/M01 A2979 RMK A01 T00021012  RH  090%=      5-min Rain = 0
KGO1 221427Z 35021KT 00/M01 A2979 RMK A01 T00021013  RH  090%=      5-min Rain = 0
KGO1 221428Z 35023G28KT 00/M01 A2979 RMK A01 T00011013  RH  090%=      5-min Rain = 0
KGO1 221429Z 34024G29KT 00/M01 A2979 RMK A01 T00011014  RH  090%=      5-min Rain = 0
KGO1 221430Z 35023G28KT 00/02 A2979 RMK A01 T00000-15  RH  090%=      5-min Rain = 0
KGO1 221431Z 35023KT 00/02 A298 RMK A01 T00000-15  RH  090%=      5-min Rain = 0
KGO1 221432Z 35024KT 00/02 A2979 RMK A01 T00-00-15  RH  090%=      5-min Rain = 0
KGO1 221433Z 35023KT 00/02 A298 RMK A01 T00-00-15  RH  090%=      5-min Rain = 0
KGO1 221434Z 35023G29KT 00/02 A298 RMK A01 T00-00-15  RH  090%=      5-min Rain = 0
KGO1 221435Z 35025G32KT 00/02 A298 RMK A01 T00-00-15  RH  090%=      5-min Rain = 0
KGO1 221436Z 35022G27KT M00/M02 A298 RMK A01 T10011016  RH  089%=      5-min Rain = 0
KGO1 221437Z 36025KT M00/M02 A298 RMK A01 T10011017  RH  089%=      5-min Rain = 0
KGO1 221438Z 35019KT M00/M02 A298 RMK A01 T10011017  RH  089%=      5-min Rain = 0
KGO1 221439Z 36021G26KT M00/M02 A298 RMK A01 T10011016  RH  089%=      5-min Rain = 0
KGO1 221440Z 35019G26KT M00/M02 A2981 RMK A01 T10011017  RH  089%=      5-min Rain = 0
KGO1 221441Z 35023KT M00/M02 A2981 RMK A01 T10011017  RH  089%=      5-min Rain = 0
KGO1 221442Z 35018KT M00/M02 A2981 RMK A01 T10011018  RH  089%=      5-min Rain = 0
KGO1 221443Z 34020KT M00/M02 A2981 RMK A01 T10021018  RH  089%=      5-min Rain = 0
KGO1 221444Z 35018KT M00/M02 A2981 RMK A01 T10021018  RH  089%=      5-min Rain = 0
KGO1 221445Z 35025G31KT M00/M02 A2981 RMK A01 T10021018  RH  089%=      5-min Rain = 0
KGO1 221446Z 35023KT M00/M02 A2981 RMK A01 T10021018  RH  089%=      5-min Rain = 0
KGO1 221447Z 35023KT M00/M02 A2981 RMK A01 T10021019  RH  089%=      5-min Rain = 0
KGO1 221448Z 34023KT M00/M02 A2981 RMK A01 T10031019  RH  089%=      5-min Rain = 0
KGO1 221449Z 35020G25KT M00/M02 A2981 RMK A01 T10031019  RH  089%=      5-min Rain = 0
KGO1 221450Z 35021KT M00/M02 A2982 RMK A01 T10021019  RH  089%=      5-min Rain = 0
KGO1 221451Z 35021KT M00/M02 A2982 RMK A01 T10021019  RH  089%=      5-min Rain = 0
KGO1 221452Z 35021G26KT M00/M02 A2982 RMK A01 T10021019  RH  088%=      5-min Rain = 0
KGO1 221453Z 36021G26KT M00/M02 A2982 RMK A01 T10031020  RH  088%=      5-min Rain = 0
KGO1 221454Z 35019G24KT M00/M02 A2982 RMK A01 T10031020  RH  088%=      5-min Rain = 0
KGO1 221455Z 35019KT M00/M02 A2982 RMK A01 T10031020  RH  088%=      5-min Rain = 0
KGO1 221456Z 35020KT M00/M02 A2982 RMK A01 T10031020  RH  088%=      5-min Rain = 0
KGO1 221457Z 35023KT M00/M02 A2982 RMK A01 T10031021  RH  088%=      5-min Rain = 0
KGO1 221458Z 35025KT M00/M02 A2982 RMK A01 T10031022  RH  087%=      5-min Rain = 0
KGO1 221459Z 34024G31KT M00/M02 A2982 RMK A01 T10041023  RH  087%=      5-min Rain = 0
KGO1 221500Z 34020KT M00/M02 A2982 RMK A01 T10041024  RH  087%=      5-min Rain = 0
KGO1 221501Z 34017KT M00/M02 A2982 RMK A01 T10041024  RH  087%=      5-min Rain = 0
KGO1 221502Z 34015KT M00/M02 A2982 RMK A01 T10041023  RH  087%=      5-min Rain = 0
KGO1 221503Z 34017G26KT M00/M02 A2982 RMK A01 T10031023  RH  087%=      5-min Rain = 0
KGO1 221504Z 34020G26KT M00/M02 A2982 RMK A01 T10031024  RH  086%=      5-min Rain = 0
KGO1 221505Z 34023G28KT M00/M02 A2982 RMK A01 T10031024  RH  086%=      5-min Rain = 0
KGO1 221506Z 34020KT M01/M03 A2983 RMK A01 T10051026  RH  086%=      5-min Rain = 0
KGO1 221507Z 35022KT M01/M03 A2983 RMK A01 T10051026  RH  086%=      5-min Rain = 0
KGO1 221508Z 34021G26KT M01/M03 A2983 RMK A01 T10051026  RH  086%=      5-min Rain = 0
KGO1 221509Z 34020G26KT M01/M03 A2983 RMK A01 T10051026  RH  086%=      5-min Rain = 0
KGO1 221510Z 34024KT M01/M03 A2982 RMK A01 T10061027  RH  086%=      5-min Rain = 0
KGO1 221511Z 34027KT M01/M03 A2983 RMK A01 T10061027  RH  086%=      5-min Rain = 0
KGO1 221512Z 34025G31KT M01/M03 A2983 RMK A01 T10071028  RH  085%=      5-min Rain = 0
KGO1 221513Z 34023G29KT M01/M03 A2983 RMK A01 T10071028  RH  085%=      5-min Rain = 0
KGO1 221514Z 34024KT M01/M03 A2983 RMK A01 T10071028  RH  085%=      5-min Rain = 0
KGO1 221515Z 34022G27KT M01/M03 A2983 RMK A01 T10071029  RH  085%=      5-min Rain = 0
KGO1 221516Z 34021KT M01/M03 A2983 RMK A01 T10071029  RH  085%=      5-min Rain = 0
KGO1 221517Z 34025G31KT M01/M03 A2983 RMK A01 T10071029  RH  085%=      5-min Rain = 0
KGO1 221518Z 34024G30KT M01/M03 A2983 RMK A01 T10071030  RH  085%=      5-min Rain = 0
KGO1 221519Z 34023G28KT M01/M03 A2983 RMK A01 T10071030  RH  085%=      5-min Rain = 0
KGO1 221520Z 34023G28KT M01/M03 A2983 RMK A01 T10071030  RH  085%=      5-min Rain = 0
KGO1 221521Z 34026G31KT M01/M03 A2983 RMK A01 T10071030  RH  084%=      5-min Rain = 0
KGO1 221522Z 35023G29KT M01/M03 A2983 RMK A01 T10071031  RH  084%=      5-min Rain = 0
KGO1 221523Z 35020G26KT M01/M03 A2983 RMK A01 T10071030  RH  085%=      5-min Rain = 0
KGO1 221524Z 34024KT M01/M03 A2983 RMK A01 T10071030  RH  084%=      5-min Rain = 0
KGO1 221525Z 35024KT M01/M03 A2983 RMK A01 T10071031  RH  084%=      5-min Rain = 0
KGO1 221526Z 35025KT M01/M03 A2983 RMK A01 T10071031  RH  084%=      5-min Rain = 0
KGO1 221527Z 34023G33KT M01/M03 A2983 RMK A01 T10081031  RH  084%=      5-min Rain = 0
KGO1 221528Z 34024G31KT M01/M03 A2983 RMK A01 T10071031  RH  084%=      5-min Rain = 0
KGO1 221529Z 34022KT M01/M03 A2983 RMK A01 T10081032  RH  084%=      5-min Rain = 0
KGO1 221530Z 35022KT M01/M03 A2984 RMK A01 T10081032  RH  084%=      5-min Rain = 0
KGO1 221531Z 35024G32KT M01/M03 A2984 RMK A01 T10081032  RH  084%=      5-min Rain = 0
KGO1 221532Z 35024G30KT M01/M03 A2984 RMK A01 T10091033  RH  083%=      5-min Rain = 0
KGO1 221533Z 34024KT M01/M03 A2984 RMK A01 T10091033  RH  084%=      5-min Rain = 0
KGO1 221534Z 34026G33KT M01/M03 A2984 RMK A01 T10091033  RH  084%=      5-min Rain = 0
KGO1 221535Z 34023KT M01/M03 A2985 RMK A01 T10091034  RH  083%=      5-min Rain = 0
KGO1 221536Z 34023G28KT M01/M03 A2985 RMK A01 T10091034  RH  083%=      5-min Rain = 0
KGO1 221537Z 34022G29KT M01/M03 A2985 RMK A01 T10091034  RH  083%=      5-min Rain = 0
KGO1 221538Z 34023KT M01/M03 A2985 RMK A01 T10091034  RH  083%=      5-min Rain = 0
KGO1 221539Z 34019KT M01/M03 A2985 RMK A01 T10091034  RH  083%=      5-min Rain = 0
KGO1 221540Z 34027G32KT M01/M03 A2986 RMK A01 T10091034  RH  083%=      5-min Rain = 0
KGO1 221541Z 34024KT M01/M03 A2986 RMK A01 T10091034  RH  083%=      5-min Rain = 0
KGO1 221542Z 34022KT M01/M03 A2986 RMK A01 T10091034  RH  083%=      5-min Rain = 0
KGO1 221543Z 34018G27KT M01/M03 A2986 RMK A01 T10091034  RH  083%=      5-min Rain = 0
KGO1 221544Z 34021G29KT M01/M03 A2986 RMK A01 T10091034  RH  083%=      5-min Rain = 0
KGO1 221545Z 34023G28KT M01/M03 A2986 RMK A01 T10081034  RH  083%=      5-min Rain = 0
KGO1 221546Z 34021G30KT M01/M03 A2986 RMK A01 T10081034  RH  083%=      5-min Rain = 0
KGO1 221547Z 35026KT M01/M03 A2986 RMK A01 T10091034  RH  083%=      5-min Rain = 0
KGO1 221548Z 34024G29KT M01/M04 A2986 RMK A01 T10091035  RH  083%=      5-min Rain = 0
KGO1 221549Z 34027KT M01/M04 A2986 RMK A01 T10091035  RH  083%=      5-min Rain = 0
KGO1 221550Z 34024KT M01/M04 A2986 RMK A01 T10091035  RH  083%=      5-min Rain = 0
KGO1 221551Z 34023KT M01/M04 A2986 RMK A01 T10091035  RH  083%=      5-min Rain = 0
KGO1 221552Z 34024KT M01/M04 A2986 RMK A01 T10091035  RH  083%=      5-min Rain = 0
KGO1 221553Z 34026KT M01/M04 A2986 RMK A01 T10091036  RH  082%=      5-min Rain = 0
KGO1 221554Z 34022G27KT M01/M04 A2986 RMK A01 T10091036  RH  082%=      5-min Rain = 0
KGO1 221555Z 34025G31KT M01/M04 A2986 RMK A01 T10091036  RH  082%=      5-min Rain = 0
KGO1 221556Z 34026G32KT M01/M04 A2986 RMK A01 T10091036  RH  082%=      5-min Rain = 0
KGO1 221557Z 34024G30KT M01/M04 A2985 RMK A01 T10091036  RH  082%=      5-min Rain = 0
KGO1 221558Z 34027KT M01/M04 A2985 RMK A01 T10091037  RH  081%=      5-min Rain = 0
KGO1 221559Z 34026KT M01/M04 A2985 RMK A01 T10091038  RH  081%=      5-min Rain = 0
KGO1 221600Z 34025KT M01/M04 A2986 RMK A01 T10091039  RH  080%=      5-min Rain = 0
KGO1 221601Z 34024G30KT M01/M04 A2986 RMK A01 T10091040  RH  080%=      5-min Rain = 0
KGO1 221602Z 34021G27KT M01/M04 A2986 RMK A01 T10081039  RH  080%=      5-min Rain = 0
KGO1 221603Z 34024G29KT M01/M04 A2986 RMK A01 T10081039  RH  079%=      5-min Rain = 0
KGO1 221604Z 33027G33KT M01/M04 A2987 RMK A01 T10081041  RH  079%=      5-min Rain = 0
KGO1 221605Z 34022G27KT M01/M04 A2987 RMK A01 T10091041  RH  079%=      5-min Rain = 0
KGO1 221606Z 35018KT M01/M04 A2987 RMK A01 T10081039  RH  079%=      5-min Rain = 0
KGO1 221607Z 35025G32KT M01/M04 A2987 RMK A01 T10071039  RH  079%=      5-min Rain = 0
KGO1 221608Z 35023KT M01/M04 A2987 RMK A01 T10071040  RH  078%=      5-min Rain = 0
KGO1 221609Z 34022G29KT M01/M04 A2987 RMK A01 T10071040  RH  078%=      5-min Rain = 0
KGO1 221610Z 34025KT M01/M04 A2987 RMK A01 T10071040  RH  078%=      5-min Rain = 0
KGO1 221611Z 35029G37KT M01/M04 A2988 RMK A01 T10081041  RH  078%=      5-min Rain = 0
KGO1 221612Z 34026G31KT M01/M04 A2988 RMK A01 T10081042  RH  078%=      5-min Rain = 0
KGO1 221613Z 34024KT M01/M04 A2988 RMK A01 T10091042  RH  078%=      5-min Rain = 0
KGO1 221614Z 34024G29KT M01/M04 A2988 RMK A01 T10091041  RH  079%=      5-min Rain = 0
KGO1 221615Z 35024G30KT M01/M04 A2988 RMK A01 T10091042  RH  078%=      5-min Rain = 0
KGO1 221616Z 35022G30KT M01/M04 A2988 RMK A01 T10091042  RH  078%=      5-min Rain = 0
KGO1 221617Z 34027KT M01/M04 A2988 RMK A01 T10091041  RH  079%=      5-min Rain = 0
KGO1 221618Z 35026KT M01/M04 A2988 RMK A01 T10091041  RH  079%=      5-min Rain = 0
KGO1 221619Z 35021G26KT M01/M04 A2989 RMK A01 T10091041  RH  079%=      5-min Rain = 0
KGO1 221620Z 34025G31KT M01/M04 A2989 RMK A01 T10091041  RH  079%=      5-min Rain = 0
KGO1 221621Z 34024KT M01/M04 A2988 RMK A01 T10091041  RH  079%=      5-min Rain = 0
KGO1 221622Z 34021KT M01/M04 A2989 RMK A01 T10091041  RH  079%=      5-min Rain = 0
KGO1 221623Z 34024G30KT M01/M04 A2989 RMK A01 T10081040  RH  079%=      5-min Rain = 0
KGO1 221624Z 34023G30KT M01/M04 A2989 RMK A01 T10081040  RH  079%=      5-min Rain = 0
KGO1 221625Z 34023G28KT M01/M04 A2989 RMK A01 T10081040  RH  079%=      5-min Rain = 0
KGO1 221626Z 34022KT M01/M04 A2989 RMK A01 T10071040  RH  079%=      5-min Rain = 0
KGO1 221627Z 34018KT M01/M04 A2989 RMK A01 T10071039  RH  079%=      5-min Rain = 0
KGO1 221628Z 34020G25KT M01/M04 A2989 RMK A01 T10061039  RH  078%=      5-min Rain = 0
KGO1 221629Z 35022G29KT M01/M04 A2989 RMK A01 T10051039  RH  078%=      5-min Rain = 0
KGO1 221630Z 35022G27KT M01/M04 A2989 RMK A01 T10061039  RH  078%=      5-min Rain = 0
KGO1 221631Z 35022G29KT M01/M04 A2989 RMK A01 T10061039  RH  078%=      5-min Rain = 0
KGO1 221632Z 35025KT M01/M04 A2989 RMK A01 T10061039  RH  078%=      5-min Rain = 0
KGO1 221633Z 35027KT M01/M04 A2989 RMK A01 T10071040  RH  078%=      5-min Rain = 0
KGO1 221634Z 35026G31KT M01/M04 A2989 RMK A01 T10071040  RH  078%=      5-min Rain = 0
KGO1 221635Z 35027G32KT M01/M04 A2989 RMK A01 T10071039  RH  079%=      5-min Rain = 0
KGO1 221636Z 34023KT M01/M04 A2989 RMK A01 T10071040  RH  079%=      5-min Rain = 0
KGO1 221637Z 36025G30KT M01/M04 A2989 RMK A01 T10071039  RH  079%=      5-min Rain = 0
KGO1 221638Z 35026KT M01/M04 A2989 RMK A01 T10071039  RH  078%=      5-min Rain = 0
KGO1 221639Z 35025KT M01/M04 A2989 RMK A01 T10071040  RH  079%=      5-min Rain = 0
KGO1 221640Z 34023G29KT M01/M04 A2989 RMK A01 T10081040  RH  079%=      5-min Rain = 0
KGO1 221641Z 34024KT M01/M04 A2989 RMK A01 T10081040  RH  079%=      5-min Rain = 0
KGO1 221642Z 34023KT M01/M04 A299 RMK A01 T10081040  RH  079%=      5-min Rain = 0
KGO1 221643Z 34021G27KT M01/M04 A299 RMK A01 T10081039  RH  079%=      5-min Rain = 0
KGO1 221644Z 34020G26KT M01/M04 A2989 RMK A01 T10071039  RH  079%=      5-min Rain = 0
KGO1 221645Z 34026G31KT M01/M04 A2989 RMK A01 T10071039  RH  079%=      5-min Rain = 0
KGO1 221646Z 35027KT M01/M04 A2989 RMK A01 T10091041  RH  079%=      5-min Rain = 0
KGO1 221647Z 35026G31KT M01/M04 A2989 RMK A01 T10091041  RH  079%=      5-min Rain = 0
KGO1 221648Z 34026KT M01/M04 A2989 RMK A01 T10091040  RH  080%=      5-min Rain = 0
KGO1 221649Z 34025G34KT M01/M04 A2989 RMK A01 T10101041  RH  080%=      5-min Rain = 0
KGO1 221650Z 35027G35KT M01/M04 A2989 RMK A01 T10111041  RH  080%=      5-min Rain = 0
KGO1 221651Z 34028G34KT M01/M04 A299 RMK A01 T10111041  RH  080%=      5-min Rain = 0
KGO1 221652Z 34029KT M01/M04 A299 RMK A01 T10111041  RH  080%=      5-min Rain = 0
KGO1 221653Z 34024KT M01/M04 A299 RMK A01 T10111041  RH  081%=      5-min Rain = 0
KGO1 221654Z 34024KT M01/M04 A299 RMK A01 T10111040  RH  081%=      5-min Rain = 0
KGO1 221655Z 35026G31KT M01/M04 A299 RMK A01 T10101040  RH  081%=      5-min Rain = 0
KGO1 221656Z 35030KT M01/M04 A299 RMK A01 T10101040  RH  080%=      5-min Rain = 0
KGO1 221657Z 34026G32KT M01/M04 A299 RMK A01 T10111040  RH  080%=      5-min Rain = 0
KGO1 221658Z 35025KT M01/M04 A299 RMK A01 T10111040  RH  080%=      5-min Rain = 0
KGO1 221659Z 35027G34KT M01/M04 A299 RMK A01 T10111040  RH  081%=      5-min Rain = 0
KGO1 221700Z 34022KT M01/M04 A299 RMK A01 T10111040  RH  080%=      5-min Rain = 0
KGO1 221701Z 34023KT M01/M04 A2991 RMK A01 T10101040  RH  081%=      5-min Rain = 0
KGO1 221702Z 35021KT M01/M04 A2991 RMK A01 T10101040  RH  080%=      5-min Rain = 0
KGO1 221703Z 35024G30KT M01/M04 A2991 RMK A01 T10101040  RH  080%=      5-min Rain = 0
KGO1 221704Z 35024G29KT M01/M04 A299 RMK A01 T10101040  RH  080%=      5-min Rain = 0
KGO1 221705Z 34026G31KT M01/M04 A2991 RMK A01 T10101040  RH  080%=      5-min Rain = 0
KGO1 221706Z 34024KT M01/M04 A2991 RMK A01 T10101042  RH  079%=      5-min Rain = 0
KGO1 221707Z 35028G34KT M01/M04 A2991 RMK A01 T10101042  RH  079%=      5-min Rain = 0
KGO1 221708Z 35024G31KT M01/M04 A299 RMK A01 T10101042  RH  079%=      5-min Rain = 0
KGO1 221709Z 34020G25KT M01/M04 A2991 RMK A01 T10091042  RH  079%=      5-min Rain = 0
KGO1 221710Z 34018KT M01/M04 A2991 RMK A01 T10091041  RH  079%=      5-min Rain = 0
KGO1 221711Z 34022G30KT M01/M04 A2991 RMK A01 T10081041  RH  078%=      5-min Rain = 0
KGO1 221712Z 34024G29KT M01/M04 A2991 RMK A01 T10081041  RH  078%=      5-min Rain = 0
KGO1 221713Z 34023KT M01/M04 A2991 RMK A01 T10091042  RH  078%=      5-min Rain = 0
KGO1 221714Z 34026G32KT M01/M04 A2991 RMK A01 T10091042  RH  078%=      5-min Rain = 0
KGO1 221715Z 34025G32KT M01/M04 A2991 RMK A01 T10091042  RH  078%=      5-min Rain = 0
KGO1 221716Z 34026KT M01/M04 A2991 RMK A01 T10101043  RH  078%=      5-min Rain = 0
KGO1 221717Z 34025G30KT M01/M04 A2991 RMK A01 T10111043  RH  078%=      5-min Rain = 0
KGO1 221718Z 35021G29KT M01/M04 A2991 RMK A01 T10111043  RH  079%=      5-min Rain = 0
KGO1 221719Z 34021G26KT M01/M04 A2992 RMK A01 T10091042  RH  079%=      5-min Rain = 0
KGO1 221720Z 35026G32KT M01/M04 A2992 RMK A01 T10091042  RH  079%=      5-min Rain = 0
KGO1 221721Z 35028KT M01/M04 A2992 RMK A01 T10091042  RH  078%=      5-min Rain = 0
KGO1 221722Z 34027G33KT M01/M04 A2992 RMK A01 T10101043  RH  079%=      5-min Rain = 0
KGO1 221723Z 35026G31KT M01/M04 A2992 RMK A01 T10111042  RH  079%=      5-min Rain = 0
KGO1 221724Z 35026G32KT M01/M04 A2992 RMK A01 T10111042  RH  079%=      5-min Rain = 0
KGO1 221725Z 34024G30KT M01/M04 A2992 RMK A01 T10111042  RH  079%=      5-min Rain = 0
KGO1 221726Z 34022G27KT M01/M04 A2992 RMK A01 T10111042  RH  080%=      5-min Rain = 0
KGO1 221727Z 34021KT M01/M04 A2992 RMK A01 T10111042  RH  080%=      5-min Rain = 0
KGO1 221728Z 35025KT M01/M04 A2992 RMK A01 T10111042  RH  079%=      5-min Rain = 0
KGO1 221729Z 34021G27KT M01/M04 A2992 RMK A01 T10101041  RH  079%=      5-min Rain = 0
KGO1 221730Z 35024G32KT M01/M04 A2992 RMK A01 T10101041  RH  079%=      5-min Rain = 0
KGO1 221731Z 34025G30KT M01/M04 A2992 RMK A01 T10091041  RH  079%=      5-min Rain = 0
KGO1 221732Z 34023G28KT M01/M04 A2992 RMK A01 T10101041  RH  079%=      5-min Rain = 0
KGO1 221733Z 34026G32KT M01/M04 A2992 RMK A01 T10101041  RH  079%=      5-min Rain = 0
KGO1 221734Z 34029G35KT M01/M04 A2992 RMK A01 T10101042  RH  079%=      5-min Rain = 0
KGO1 221735Z 35028KT M01/M04 A2992 RMK A01 T10101042  RH  079%=      5-min Rain = 0
KGO1 221736Z 35024KT M01/M04 A2992 RMK A01 T10101042  RH  079%=      5-min Rain = 0
KGO1 221737Z 34025G30KT M01/M04 A2993 RMK A01 T10101042  RH  079%=      5-min Rain = 0
KGO1 221738Z 35028G33KT M01/M04 A2993 RMK A01 T10101042  RH  079%=      5-min Rain = 0
KGO1 221739Z 35025G30KT M01/M04 A2993 RMK A01 T10101042  RH  079%=      5-min Rain = 0
KGO1 221740Z 34025KT M01/M04 A2992 RMK A01 T10101042  RH  079%=      5-min Rain = 0
KGO1 221741Z 35024G29KT M01/M04 A2993 RMK A01 T10101042  RH  079%=      5-min Rain = 0
KGO1 221742Z 35024KT M01/M04 A2993 RMK A01 T10101042  RH  079%=      5-min Rain = 0
KGO1 221743Z 35024KT M01/M04 A2993 RMK A01 T10101042  RH  079%=      5-min Rain = 0
KGO1 221744Z 35025KT M01/M04 A2993 RMK A01 T10101042  RH  079%=      5-min Rain = 0
KGO1 221745Z 35023G29KT M01/M04 A2993 RMK A01 T10101042  RH  079%=      5-min Rain = 0
KGO1 221746Z 35025G31KT M01/M04 A2993 RMK A01 T10091041  RH  079%=      5-min Rain = 0
KGO1 221747Z 35023KT M01/M04 A2993 RMK A01 T10091041  RH  079%=      5-min Rain = 0
KGO1 221748Z 35024G29KT M01/M04 A2993 RMK A01 T10091041  RH  079%=      5-min Rain = 0
KGO1 221749Z 34018KT M01/M04 A2993 RMK A01 T10081040  RH  079%=      5-min Rain = 0
KGO1 221750Z 34018KT M01/M04 A2993 RMK A01 T10071040  RH  079%=      5-min Rain = 0
KGO1 221751Z 34024G29KT M01/M04 A2993 RMK A01 T10071040  RH  078%=      5-min Rain = 0
KGO1 221752Z 35024KT M01/M04 A2993 RMK A01 T10071041  RH  078%=      5-min Rain = 0
KGO1 221753Z 34022G28KT M01/M04 A2993 RMK A01 T10081042  RH  078%=      5-min Rain = 0
KGO1 221754Z 34025KT M01/M04 A2993 RMK A01 T10081043  RH  078%=      5-min Rain = 0
KGO1 221755Z 34024G30KT M01/M04 A2993 RMK A01 T10091043  RH  078%=      5-min Rain = 0
KGO1 221756Z 34018KT M01/M04 A2993 RMK A01 T10091043  RH  078%=      5-min Rain = 0
KGO1 221757Z 35022G30KT M01/M04 A2993 RMK A01 T10091043  RH  078%=      5-min Rain = 0
KGO1 221758Z 34023KT M01/M04 A2993 RMK A01 T10091043  RH  077%=      5-min Rain = 0
KGO1 221759Z 34021KT M01/M04 A2993 RMK A01 T10091043  RH  078%=      5-min Rain = 0
KGO1 221800Z 34020G25KT M01/M04 A2993 RMK A01 T10091043  RH  078%=      5-min Rain = 0
KGO1 221801Z 35019G27KT M01/M04 A2993 RMK A01 T10091043  RH  078%=      5-min Rain = 0
KGO1 221802Z 35025KT M01/M04 A2993 RMK A01 T10091043  RH  078%=      5-min Rain = 0
KGO1 221803Z 33022G27KT M01/M04 A2994 RMK A01 T10091043  RH  078%=      5-min Rain = 0
KGO1 221804Z 34021G26KT M01/M04 A2994 RMK A01 T10091043  RH  078%=      5-min Rain = 0
KGO1 221805Z 33021KT M01/M04 A2994 RMK A01 T10101044  RH  078%=      5-min Rain = 0
KGO1 221806Z 34023G30KT M01/M04 A2994 RMK A01 T10101044  RH  078%=      5-min Rain = 0
KGO1 221807Z 34024G29KT M01/M04 A2994 RMK A01 T10111044  RH  078%=      5-min Rain = 0
KGO1 221808Z 34026G31KT M01/M05 A2994 RMK A01 T10121045  RH  078%=      5-min Rain = 0
KGO1 221809Z 34023G29KT M01/M05 A2994 RMK A01 T10131046  RH  078%=      5-min Rain = 0
KGO1 221810Z 34026G34KT M01/M05 A2994 RMK A01 T10131046  RH  078%=      5-min Rain = 0
KGO1 221811Z 34026G31KT M01/M05 A2994 RMK A01 T10131047  RH  077%=      5-min Rain = 0
KGO1 221812Z 34024KT M01/M05 A2994 RMK A01 T10131048  RH  077%=      5-min Rain = 0
KGO1 221813Z 34021G26KT M01/M05 A2994 RMK A01 T10131048  RH  077%=      5-min Rain = 0
KGO1 221814Z 33026G32KT M01/M05 A2994 RMK A01 T10121048  RH  077%=      5-min Rain = 0
KGO1 221815Z 33026KT M01/M05 A2994 RMK A01 T10131049  RH  077%=      5-min Rain = 0
KGO1 221816Z 34023KT M01/M05 A2994 RMK A01 T10141049  RH  077%=      5-min Rain = 0
KGO1 221817Z 33022G27KT M01/M05 A2994 RMK A01 T10131048  RH  077%=      5-min Rain = 0
KGO1 221818Z 33026G31KT M01/M05 A2994 RMK A01 T10121048  RH  077%=      5-min Rain = 0
KGO1 221819Z 34025G31KT M01/M05 A2994 RMK A01 T10121049  RH  076%=      5-min Rain = 0
KGO1 221820Z 34026G31KT M01/M05 A2994 RMK A01 T10131049  RH  076%=      5-min Rain = 0
KGO1 221821Z 33027KT M01/M05 A2994 RMK A01 T10141049  RH  077%=      5-min Rain = 0
KGO1 221822Z 33028KT M01/M05 A2994 RMK A01 T10141049  RH  077%=      5-min Rain = 0
KGO1 221823Z 33027KT M02/M05 A2994 RMK A01 T10151049  RH  078%=      5-min Rain = 0
KGO1 221824Z 33023G28KT M02/M05 A2994 RMK A01 T10151049  RH  078%=      5-min Rain = 0
KGO1 221825Z 33025G30KT M02/M05 A2994 RMK A01 T10151049  RH  078%=      5-min Rain = 0
KGO1 221826Z 33024KT M02/M05 A2994 RMK A01 T10151049  RH  078%=      5-min Rain = 0
KGO1 221827Z 33022G27KT M02/M05 A2994 RMK A01 T10151049  RH  078%=      5-min Rain = 0
KGO1 221828Z 34023G29KT M01/M05 A2994 RMK A01 T10141048  RH  078%=      5-min Rain = 0
KGO1 221829Z 34026G33KT M01/M05 A2994 RMK A01 T10141049  RH  077%=      5-min Rain = 0
KGO1 221830Z 34021G26KT M02/M05 A2994 RMK A01 T10151050  RH  077%=      5-min Rain = 0
KGO1 221831Z 34025KT M02/M05 A2994 RMK A01 T10151050  RH  077%=      5-min Rain = 0
KGO1 221832Z 34025KT M02/M05 A2994 RMK A01 T10151051  RH  076%=      5-min Rain = 0
KGO1 221833Z 34022G29KT M01/M05 A2994 RMK A01 T10141051  RH  076%=      5-min Rain = 0
KGO1 221834Z 34025KT M01/M05 A2995 RMK A01 T10141052  RH  075%=      5-min Rain = 0
KGO1 221835Z 33023KT M01/M05 A2994 RMK A01 T10141052  RH  075%=      5-min Rain = 0
KGO1 221836Z 33025G31KT M01/M05 A2994 RMK A01 T10131051  RH  075%=      5-min Rain = 0
KGO1 221837Z 33024G33KT M01/M05 A2994 RMK A01 T10131052  RH  075%=      5-min Rain = 0
KGO1 221838Z 33029KT M01/M05 A2994 RMK A01 T10131052  RH  074%=      5-min Rain = 0
KGO1 221839Z 33027KT M01/M05 A2994 RMK A01 T10141053  RH  075%=      5-min Rain = 0
KGO1 221840Z 34027G34KT M02/M05 A2994 RMK A01 T10151053  RH  075%=      5-min Rain = 0
KGO1 221841Z 33029KT M02/M05 A2994 RMK A01 T10161053  RH  076%=      5-min Rain = 0
KGO1 221842Z 33029G35KT M02/M05 A2994 RMK A01 T10171054  RH  076%=      5-min Rain = 0
KGO1 221843Z 33029KT M02/M05 A2994 RMK A01 T10181054  RH  076%=      5-min Rain = 0
KGO1 221844Z 33026G32KT M02/M05 A2994 RMK A01 T10181054  RH  077%=      5-min Rain = 0
KGO1 221845Z 33026KT M02/M05 A2994 RMK A01 T10191054  RH  077%=      5-min Rain = 0
KGO1 221846Z 33029KT M02/M05 A2994 RMK A01 T10181053  RH  077%=      5-min Rain = 0
KGO1 221847Z 33025G30KT M02/M05 A2994 RMK A01 T10181053  RH  077%=      5-min Rain = 0
KGO1 221848Z 33029G36KT M02/M05 A2994 RMK A01 T10171052  RH  077%=      5-min Rain = 0
KGO1 221849Z 34027G32KT M02/M05 A2994 RMK A01 T10181053  RH  077%=      5-min Rain = 0
KGO1 221850Z 34028G33KT M02/M05 A2994 RMK A01 T10181053  RH  077%=      5-min Rain = 0
KGO1 221851Z 34027KT M02/M05 A2994 RMK A01 T10181054  RH  077%=      5-min Rain = 0
KGO1 221852Z 33024G29KT M02/M06 A2994 RMK A01 T10191055  RH  077%=      5-min Rain = 0
KGO1 221853Z 34026G31KT M02/M05 A2994 RMK A01 T10181054  RH  076%=      5-min Rain = 0
KGO1 221854Z 34023G31KT M02/M05 A2994 RMK A01 T10181054  RH  076%=      5-min Rain = 0
KGO1 221855Z 34025KT M02/M06 A2994 RMK A01 T10171055  RH  076%=      5-min Rain = 0
KGO1 221856Z 34025KT M02/M06 A2994 RMK A01 T10171055  RH  076%=      5-min Rain = 0
KGO1 221857Z 33025KT M02/M05 A2995 RMK A01 T10161053  RH  075%=      5-min Rain = 0
KGO1 221858Z 34023G28KT M02/M05 A2995 RMK A01 T10151054  RH  075%=      5-min Rain = 0
KGO1 221859Z 33027KT M02/M05 A2995 RMK A01 T10151054  RH  074%=      5-min Rain = 0
KGO1 221900Z 33025KT M02/M06 A2995 RMK A01 T10171056  RH  075%=      5-min Rain = 0
KGO1 221901Z 34026KT M02/M06 A2995 RMK A01 T10181057  RH  075%=      5-min Rain = 0
KGO1 221902Z 34023KT M02/M06 A2995 RMK A01 T10181057  RH  075%=      5-min Rain = 0
KGO1 221903Z 34024G30KT M02/M06 A2995 RMK A01 T10171055  RH  075%=      5-min Rain = 0
KGO1 221904Z 33021KT M02/M06 A2995 RMK A01 T10161055  RH  075%=      5-min Rain = 0
KGO1 221905Z 33023G29KT M01/M05 A2994 RMK A01 T10141053  RH  075%=      5-min Rain = 0
KGO1 221906Z 33028G34KT M01/M05 A2994 RMK A01 T10131053  RH  074%=      5-min Rain = 0
KGO1 221907Z 32027G32KT M01/M05 A2994 RMK A01 T10141054  RH  074%=      5-min Rain = 0
KGO1 221908Z 33029KT M01/M06 A2994 RMK A01 T10141055  RH  074%=      5-min Rain = 0
KGO1 221909Z 33023KT M01/M06 A2994 RMK A01 T10141055  RH  074%=      5-min Rain = 0
KGO1 221910Z 33026G32KT M01/M05 A2994 RMK A01 T10121053  RH  074%=      5-min Rain = 0
KGO1 221911Z 33022G30KT M01/M05 A2995 RMK A01 T10101053  RH  072%=      5-min Rain = 0
KGO1 221912Z 33026KT M01/M05 A2995 RMK A01 T10081053  RH  071%=      5-min Rain = 0
KGO1 221913Z 33028G34KT M01/M06 A2994 RMK A01 T10091057  RH  070%=      5-min Rain = 0
KGO1 221914Z 32027KT M01/M06 A2995 RMK A01 T10111059  RH  070%=      5-min Rain = 0
KGO1 221915Z 33027G33KT M01/M06 A2994 RMK A01 T10101058  RH  070%=      5-min Rain = 0
KGO1 221916Z 33026KT M01/M06 A2995 RMK A01 T10091057  RH  070%=      5-min Rain = 0
KGO1 221917Z 33024KT M01/M06 A2995 RMK A01 T10071056  RH  069%=      5-min Rain = 0
KGO1 221918Z 33025G30KT M01/M06 A2995 RMK A01 T10061057  RH  069%=      5-min Rain = 0
KGO1 221919Z 33024G29KT M01/M06 A2995 RMK A01 T10081059  RH  068%=      5-min Rain = 0
KGO1 221920Z 33026G32KT M01/M06 A2995 RMK A01 T10091058  RH  069%=      5-min Rain = 0
KGO1 221921Z 33029G35KT M01/M06 A2995 RMK A01 T10121060  RH  070%=      5-min Rain = 0
KGO1 221922Z 34025G32KT M01/M06 A2995 RMK A01 T10141060  RH  071%=      5-min Rain = 0
KGO1 221923Z 33025KT M01/M06 A2995 RMK A01 T10141059  RH  071%=      5-min Rain = 0
KGO1 221924Z 33028KT M02/M06 A2995 RMK A01 T10151060  RH  071%=      5-min Rain = 0
KGO1 221925Z 33024G29KT M02/M06 A2995 RMK A01 T10151060  RH  071%=      5-min Rain = 0
KGO1 221926Z 33027G32KT M01/M06 A2995 RMK A01 T10131060  RH  070%=      5-min Rain = 0
KGO1 221927Z 34027KT M01/M06 A2995 RMK A01 T10141063  RH  069%=      5-min Rain = 0
KGO1 221928Z 34025G31KT M02/M06 A2995 RMK A01 T10151063  RH  069%=      5-min Rain = 0
KGO1 221929Z 34024G30KT M01/M06 A2996 RMK A01 T10141063  RH  069%=      5-min Rain = 0
KGO1 221930Z 34027G32KT M01/M07 A2995 RMK A01 T10141065  RH  068%=      5-min Rain = 0
KGO1 221931Z 34025G33KT M01/M07 A2995 RMK A01 T10141065  RH  068%=      5-min Rain = 0
KGO1 221932Z 34025G30KT M01/M07 A2995 RMK A01 T10131066  RH  067%=      5-min Rain = 0
KGO1 221933Z 34025G30KT M01/M07 A2995 RMK A01 T10131067  RH  067%=      5-min Rain = 0
KGO1 221934Z 33027G32KT M01/M07 A2995 RMK A01 T10121067  RH  066%=      5-min Rain = 0
KGO1 221935Z 33028G34KT M01/M07 A2995 RMK A01 T10141068  RH  066%=      5-min Rain = 0
KGO1 221936Z 34029KT M01/M07 A2995 RMK A01 T10141068  RH  066%=      5-min Rain = 0
KGO1 221937Z 34025G32KT M01/M07 A2995 RMK A01 T10121065  RH  067%=      5-min Rain = 0
KGO1 221938Z 34028G33KT M01/M06 A2995 RMK A01 T10061063  RH  066%=      5-min Rain = 0
KGO1 221939Z 34028G34KT M01/M07 A2995 RMK A01 T10071067  RH  064%=      5-min Rain = 0
KGO1 221940Z 34026KT M01/M07 A2995 RMK A01 T10091068  RH  064%=      5-min Rain = 0
KGO1 221941Z 34026G34KT M01/M06 A2995 RMK A01 T10061063  RH  065%=      5-min Rain = 0
KGO1 221942Z 34028G33KT M00/M06 A2995 RMK A01 T10041064  RH  064%=      5-min Rain = 0
KGO1 221943Z 34025G30KT M01/M07 A2995 RMK A01 T10071068  RH  063%=      5-min Rain = 0
KGO1 221944Z 34025KT M01/M07 A2995 RMK A01 T10071066  RH  064%=      5-min Rain = 0
KGO1 221945Z 34027KT M01/M07 A2995 RMK A01 T10061066  RH  064%=      5-min Rain = 0
KGO1 221946Z 33020G25KT M01/M07 A2995 RMK A01 T10061066  RH  064%=      5-min Rain = 0
KGO1 221947Z 33023G29KT M00/M06 A2995 RMK A01 T10021062  RH  064%=      5-min Rain = 0
KGO1 221948Z 33020G26KT 00/M06 A2995 RMK A01 T00011063  RH  062%=      5-min Rain = 0
KGO1 221949Z 34019G24KT 00/M06 A2996 RMK A01 T00031062  RH  062%=      5-min Rain = 0
KGO1 221950Z 34027KT 00/M07 A2996 RMK A01 T00031066  RH  060%=      5-min Rain = 0
KGO1 221951Z 34026KT M01/M07 A2996 RMK A01 T10061074  RH  060%=      5-min Rain = 0
KGO1 221952Z 34026KT M01/M07 A2996 RMK A01 T10101073  RH  062%=      5-min Rain = 0
KGO1 221953Z 34026G34KT M01/M07 A2996 RMK A01 T10071068  RH  063%=      5-min Rain = 0
KGO1 221954Z 34029KT M00/M07 A2996 RMK A01 T10041069  RH  061%=      5-min Rain = 0
KGO1 221955Z 33027KT M01/M07 A2996 RMK A01 T10051073  RH  060%=      5-min Rain = 0
KGO1 221956Z 34027G33KT M01/M07 A2996 RMK A01 T10051073  RH  060%=      5-min Rain = 0
KGO1 221957Z 35029KT M01/M08 A2996 RMK A01 T10061075  RH  059%=      5-min Rain = 0
KGO1 221958Z 33026G31KT M01/M08 A2996 RMK A01 T10081077  RH  060%=      5-min Rain = 0
KGO1 221959Z 33025KT M01/M07 A2996 RMK A01 T10061073  RH  060%=      5-min Rain = 0
KGO1 222000Z 33025G30KT M00/M07 A2995 RMK A01 T10011069  RH  060%=      5-min Rain = 0
KGO1 222001Z 34025G31KT 00/M07 A2996 RMK A01 T00021071  RH  058%=      5-min Rain = 0
KGO1 222002Z 33024G29KT 00/M07 A2996 RMK A01 T00031073  RH  057%=      5-min Rain = 0
KGO1 222003Z 34023G30KT 00/M07 A2996 RMK A01 T00031074  RH  056%=      5-min Rain = 0
KGO1 222004Z 34025G31KT 01/M07 A2996 RMK A01 T00061073  RH  056%=      5-min Rain = 0
KGO1 222005Z 34020G25KT 01/M07 A2996 RMK A01 T00071073  RH  055%=      5-min Rain = 0
KGO1 222006Z 34027G33KT 01/M07 A2996 RMK A01 T00101072  RH  054%=      5-min Rain = 0
KGO1 222007Z 34025G30KT 01/M08 A2995 RMK A01 T00071077  RH  053%=      5-min Rain = 0
KGO1 222008Z 34027G33KT 00/M08 A2995 RMK A01 T00011080  RH  054%=      5-min Rain = 0
KGO1 222009Z 33028G34KT M00/M08 A2995 RMK A01 T10011080  RH  055%=      5-min Rain = 0
KGO1 222010Z 34026G31KT M00/M08 A2995 RMK A01 T10011081  RH  055%=      5-min Rain = 0
KGO1 222011Z 34026G31KT M00/M08 A2996 RMK A01 T10041082  RH  056%=      5-min Rain = 0
KGO1 222012Z 34028KT M01/M08 A2996 RMK A01 T10071081  RH  057%=      5-min Rain = 0
KGO1 222013Z 34027G32KT M01/M08 A2995 RMK A01 T10051079  RH  057%=      5-min Rain = 0
KGO1 222014Z 34024G29KT M00/M08 A2996 RMK A01 T10011076  RH  057%=      5-min Rain = 0
KGO1 222015Z 33027KT 00/08 A2995 RMK A01 T00-00-79  RH  055%=      5-min Rain = 0
KGO1 222016Z 34026KT M01/M08 A2995 RMK A01 T10051084  RH  055%=      5-min Rain = 0
KGO1 222017Z 34024G30KT M01/M08 A2996 RMK A01 T10071083  RH  056%=      5-min Rain = 0
KGO1 222018Z 34025G31KT M01/M08 A2996 RMK A01 T10081084  RH  056%=      5-min Rain = 0
KGO1 222019Z 33029G34KT M01/M09 A2996 RMK A01 T10101087  RH  056%=      5-min Rain = 0
KGO1 222020Z 33028G34KT M01/M09 A2996 RMK A01 T10111088  RH  056%=      5-min Rain = 0
KGO1 222021Z 34026G31KT M01/M09 A2996 RMK A01 T10091086  RH  056%=      5-min Rain = 0
KGO1 222022Z 34025G31KT M01/M08 A2996 RMK A01 T10061083  RH  056%=      5-min Rain = 0
KGO1 222023Z 33030KT M00/M08 A2996 RMK A01 T10021083  RH  054%=      5-min Rain = 0
KGO1 222024Z 34031G36KT M00/M09 A2996 RMK A01 T10031088  RH  053%=      5-min Rain = 0
KGO1 222025Z 34028G35KT M00/M09 A2996 RMK A01 T10041090  RH  052%=      5-min Rain = 0
KGO1 222026Z 34027G32KT M01/M09 A2996 RMK A01 T10051090  RH  053%=      5-min Rain = 0
KGO1 222027Z 33028G34KT M01/M09 A2996 RMK A01 T10061090  RH  053%=      5-min Rain = 0
KGO1 222028Z 33026KT M01/M09 A2996 RMK A01 T10051088  RH  053%=      5-min Rain = 0
KGO1 222029Z 34026G33KT M00/M09 A2996 RMK A01 T10011086  RH  053%=      5-min Rain = 0
KGO1 222030Z 34029G34KT 00/09 A2997 RMK A01 T00-00-88  RH  052%=      5-min Rain = 0
KGO1 222031Z 33031KT M00/M09 A2997 RMK A01 T10021091  RH  051%=      5-min Rain = 0
KGO1 222032Z 34028G33KT M00/M09 A2997 RMK A01 T10041092  RH  051%=      5-min Rain = 0
KGO1 222033Z 33026KT M00/M09 A2996 RMK A01 T10041091  RH  052%=      5-min Rain = 0
KGO1 222034Z 33025G30KT M00/M09 A2996 RMK A01 T10021089  RH  052%=      5-min Rain = 0
KGO1 222035Z 33025G31KT 00/09 A2996 RMK A01 T00-00-89  RH  051%=      5-min Rain = 0
KGO1 222036Z 33024G29KT 00/09 A2996 RMK A01 T00-00-90  RH  051%=      5-min Rain = 0
KGO1 222037Z 34025G34KT 00/M09 A2996 RMK A01 T00011089  RH  051%=      5-min Rain = 0
KGO1 222038Z 34025G30KT 00/M09 A2996 RMK A01 T00011091  RH  050%=      5-min Rain = 0
KGO1 222039Z 33026G32KT 00/M09 A2996 RMK A01 T00011091  RH  050%=      5-min Rain = 0
KGO1 222040Z 34026KT 00/M09 A2996 RMK A01 T00011091  RH  050%=      5-min Rain = 0
KGO1 222041Z 35024G30KT 00/M09 A2997 RMK A01 T00021091  RH  050%=      5-min Rain = 0
KGO1 222042Z 34030KT 00/M09 A2997 RMK A01 T00021091  RH  050%=      5-min Rain = 0
KGO1 222043Z 34026G32KT 00/09 A2997 RMK A01 T00000-93  RH  049%=      5-min Rain = 0
KGO1 222044Z 33025KT M00/M09 A2997 RMK A01 T10021094  RH  050%=      5-min Rain = 0
KGO1 222045Z 33026KT M00/M09 A2997 RMK A01 T10011092  RH  050%=      5-min Rain = 0
KGO1 222046Z 34023G28KT 00/09 A2997 RMK A01 T00000-92  RH  050%=      5-min Rain = 0
KGO1 222047Z 34027G32KT 00/M09 A2997 RMK A01 T00031091  RH  049%=      5-min Rain = 0
KGO1 222048Z 33024G30KT 00/M09 A2997 RMK A01 T00021093  RH  049%=      5-min Rain = 0
KGO1 222049Z 33024KT 00/M09 A2997 RMK A01 T00021093  RH  049%=      5-min Rain = 0
KGO1 222050Z 34022KT 00/M09 A2997 RMK A01 T00041091  RH  049%=      5-min Rain = 0
KGO1 222051Z 33025KT 01/M09 A2998 RMK A01 T00051091  RH  048%=      5-min Rain = 0
KGO1 222052Z 34025G31KT 00/M09 A2998 RMK A01 T00031094  RH  048%=      5-min Rain = 0
KGO1 222053Z 33027KT 00/M10 A2998 RMK A01 T00021095  RH  048%=      5-min Rain = 0
KGO1 222054Z 33027KT 00/10 A2998 RMK A01 T00000-95  RH  049%=      5-min Rain = 0
KGO1 222055Z 34023G31KT M00/M10 A2998 RMK A01 T10011095  RH  049%=      5-min Rain = 0
KGO1 222056Z 34024G29KT M00/M09 A2998 RMK A01 T10011094  RH  050%=      5-min Rain = 0
KGO1 222057Z 34029KT 00/M10 A2998 RMK A01 T00011095  RH  049%=      5-min Rain = 0
KGO1 222058Z 34026G33KT M00/M10 A2998 RMK A01 T10011098  RH  048%=      5-min Rain = 0
KGO1 222059Z 34027KT M00/M10 A2998 RMK A01 T10021098  RH  048%=      5-min Rain = 0
KGO1 222100Z 34024G30KT M00/M10 A2998 RMK A01 T10021098  RH  048%=      5-min Rain = 0
KGO1 222101Z 34022G28KT 00/M10 A2998 RMK A01 T00011096  RH  048%=      5-min Rain = 0
KGO1 222102Z 33024G29KT 00/M10 A2998 RMK A01 T00021095  RH  048%=      5-min Rain = 0
KGO1 222103Z 33024G29KT 00/M10 A2998 RMK A01 T00021095  RH  048%=      5-min Rain = 0
KGO1 222104Z 33022G27KT 00/M10 A2998 RMK A01 T00011095  RH  048%=      5-min Rain = 0
KGO1 222105Z 35026G32KT 00/M09 A2998 RMK A01 T00031094  RH  048%=      5-min Rain = 0
KGO1 222106Z 34025G32KT 00/M10 A2998 RMK A01 T00011097  RH  048%=      5-min Rain = 0
KGO1 222107Z 34029G34KT M00/M10 A2998 RMK A01 T10021099  RH  048%=      5-min Rain = 0
KGO1 222108Z 34029KT M00/M10 A2998 RMK A01 T10031099  RH  048%=      5-min Rain = 0
KGO1 222109Z 34023G30KT M00/M10 A2998 RMK A01 T10031098  RH  049%=      5-min Rain = 0
KGO1 222110Z 34022G28KT 00/10 A2998 RMK A01 T00-00-95  RH  049%=      5-min Rain = 0
KGO1 222111Z 34025G31KT 00/M10 A2998 RMK A01 T00021096  RH  048%=      5-min Rain = 0
KGO1 222112Z 34029G36KT 00/M10 A2998 RMK A01 T00021098  RH  047%=      5-min Rain = 0
KGO1 222113Z 33032G38KT 00/M10 A2998 RMK A01 T00011099  RH  047%=      5-min Rain = 0
KGO1 222114Z 34023G30KT M00/M10 A2998 RMK A01 T10011100  RH  047%=      5-min Rain = 0
KGO1 222115Z 34022KT 00/M10 A2998 RMK A01 T00011097  RH  047%=      5-min Rain = 0
KGO1 222116Z 34031G37KT 00/M10 A2998 RMK A01 T00041097  RH  047%=      5-min Rain = 0
KGO1 222117Z 34027G34KT 00/10 A2998 RMK A01 T00000-101  RH  047%=      5-min Rain = 0
KGO1 222118Z 34029G35KT M00/M10 A2998 RMK A01 T10011100  RH  047%=      5-min Rain = 0
KGO1 222119Z 33027G33KT M00/M10 A2998 RMK A01 T10011100  RH  047%=      5-min Rain = 0
KGO1 222120Z 32026G31KT M00/M10 A2998 RMK A01 T10011099  RH  047%=      5-min Rain = 0
KGO1 222121Z 32026G32KT 00/M10 A2998 RMK A01 T00011099  RH  047%=      5-min Rain = 0
KGO1 222122Z 33028G35KT 00/M10 A2998 RMK A01 T00021099  RH  047%=      5-min Rain = 0
KGO1 222123Z 33028G33KT 00/M10 A2998 RMK A01 T00011099  RH  047%=      5-min Rain = 0
KGO1 222124Z 33029G34KT 00/M10 A2999 RMK A01 T00011100  RH  047%=      5-min Rain = 0
KGO1 222125Z 34025G31KT 00/M10 A2999 RMK A01 T00011099  RH  047%=      5-min Rain = 0
KGO1 222126Z 33031G36KT 00/M10 A2999 RMK A01 T00021099  RH  047%=      5-min Rain = 0
KGO1 222127Z 32029G36KT 00/M10 A2999 RMK A01 T00011101  RH  046%=      5-min Rain = 0
KGO1 222128Z 33027G34KT 00/M10 A2999 RMK A01 T00011099  RH  047%=      5-min Rain = 0
KGO1 222129Z 33028G33KT 00/M10 A2999 RMK A01 T00021100  RH  046%=      5-min Rain = 0
KGO1 222130Z 33027G32KT 00/M10 A2999 RMK A01 T00011099  RH  047%=      5-min Rain = 0
KGO1 222131Z 33024G29KT 00/M10 A2999 RMK A01 T00011098  RH  047%=      5-min Rain = 0
KGO1 222132Z 33022G28KT 00/M10 A2999 RMK A01 T00031097  RH  047%=      5-min Rain = 0
KGO1 222133Z 33023G28KT 00/M10 A2999 RMK A01 T00031097  RH  047%=      5-min Rain = 0
KGO1 222134Z 34021G30KT 01/M09 A30 RMK A01 T00051094  RH  047%=      5-min Rain = 0
KGO1 222135Z 35026G31KT 01/M09 A30 RMK A01 T00071094  RH  047%=      5-min Rain = 0
KGO1 222136Z 35026G31KT 01/M10 A30 RMK A01 T00051098  RH  046%=      5-min Rain = 0
KGO1 222137Z 34025KT 00/M10 A30 RMK A01 T00031099  RH  046%=      5-min Rain = 0
KGO1 222138Z 33027G34KT 00/M10 A30 RMK A01 T00021099  RH  047%=      5-min Rain = 0
KGO1 222139Z 33023KT 00/M10 A2999 RMK A01 T00011099  RH  047%=      5-min Rain = 0
KGO1 222140Z 34023G33KT 00/10 A30 RMK A01 T00000-99  RH  047%=      5-min Rain = 0
KGO1 222141Z 35030KT 00/M10 A30 RMK A01 T00011098  RH  047%=      5-min Rain = 0
KGO1 222142Z 34027G32KT 00/10 A30 RMK A01 T00000-99  RH  047%=      5-min Rain = 0
KGO1 222143Z 33023KT 00/10 A30 RMK A01 T00-00-99  RH  048%=      5-min Rain = 0
KGO1 222144Z 34019G24KT M00/M10 A30 RMK A01 T10011098  RH  048%=      5-min Rain = 0
KGO1 222145Z 34023KT 00/10 A30 RMK A01 T00000-97  RH  048%=      5-min Rain = 0
KGO1 222146Z 33023G30KT 00/M10 A30 RMK A01 T00011098  RH  047%=      5-min Rain = 0
KGO1 222147Z 34028KT 00/M10 A30 RMK A01 T00041098  RH  046%=      5-min Rain = 0
KGO1 222148Z 34026KT 00/M10 A30 RMK A01 T00041100  RH  045%=      5-min Rain = 0
KGO1 222149Z 34028G34KT 00/M10 A30 RMK A01 T00041101  RH  045%=      5-min Rain = 0
KGO1 222150Z 35028KT 00/M10 A30 RMK A01 T00031103  RH  045%=      5-min Rain = 0
KGO1 222151Z 35026KT 00/M10 A30 RMK A01 T00021103  RH  045%=      5-min Rain = 0
KGO1 222152Z 34025KT 00/M10 A30 RMK A01 T00021101  RH  046%=      5-min Rain = 0
KGO1 222153Z 34028KT 00/M10 A30 RMK A01 T00021101  RH  046%=      5-min Rain = 0
KGO1 222154Z 34027KT 00/M10 A30 RMK A01 T00011102  RH  046%=      5-min Rain = 0
KGO1 222155Z 34027G33KT 00/10 A30 RMK A01 T00000-102  RH  046%=      5-min Rain = 0
KGO1 222156Z 34025KT 00/10 A30 RMK A01 T00-00-101  RH  046%=      5-min Rain = 0
KGO1 222157Z 34023KT 00/M10 A30 RMK A01 T00021100  RH  046%=      5-min Rain = 0
KGO1 222158Z 34023G29KT 00/M10 A30 RMK A01 T00031100  RH  046%=      5-min Rain = 0
KGO1 222159Z 34020G25KT 00/M10 A3001 RMK A01 T00031100  RH  046%=      5-min Rain = 0
KGO1 222200Z 34023G29KT 00/M10 A30 RMK A01 T00041100  RH  046%=      5-min Rain = 0
KGO1 222201Z 34028KT 00/M10 A3001 RMK A01 T00031100  RH  046%=      5-min Rain = 0
KGO1 222202Z 34021KT 00/M10 A3001 RMK A01 T00021100  RH  046%=      5-min Rain = 0
KGO1 222203Z 34022G27KT 00/M10 A3001 RMK A01 T00021100  RH  046%=      5-min Rain = 0
KGO1 222204Z 34026G32KT 00/M10 A3001 RMK A01 T00021100  RH  046%=      5-min Rain = 0
KGO1 222205Z 35024G30KT 00/M10 A3001 RMK A01 T00011101  RH  046%=      5-min Rain = 0
KGO1 222206Z 35027KT 00/M10 A3001 RMK A01 T00011101  RH  047%=      5-min Rain = 0
KGO1 222207Z 35026G36KT 00/10 A3001 RMK A01 T00000-100  RH  047%=      5-min Rain = 0
KGO1 222208Z 34026G33KT M00/M10 A3001 RMK A01 T10011102  RH  047%=      5-min Rain = 0
KGO1 222209Z 34026KT M00/M10 A3001 RMK A01 T10021102  RH  047%=      5-min Rain = 0
KGO1 222210Z 34025KT M00/M10 A3001 RMK A01 T10021102  RH  047%=      5-min Rain = 0
KGO1 222211Z 34025G30KT M00/M10 A3001 RMK A01 T10021102  RH  047%=      5-min Rain = 0
KGO1 222212Z 34028G35KT M00/M10 A3001 RMK A01 T10011102  RH  046%=      5-min Rain = 0
KGO1 222213Z 34026G34KT 00/10 A3001 RMK A01 T00000-102  RH  046%=      5-min Rain = 0
KGO1 222214Z 33029G35KT 00/M10 A3001 RMK A01 T00011103  RH  046%=      5-min Rain = 0
KGO1 222215Z 34024G30KT 00/M10 A3001 RMK A01 T00011103  RH  046%=      5-min Rain = 0
KGO1 222216Z 34030G36KT 00/M10 A3001 RMK A01 T00011103  RH  045%=      5-min Rain = 0
KGO1 222217Z 33026KT 00/M10 A3001 RMK A01 T00011104  RH  045%=      5-min Rain = 0
KGO1 222218Z 32027KT 00/M10 A3001 RMK A01 T00011103  RH  045%=      5-min Rain = 0
KGO1 222219Z 33028G34KT 00/M10 A3001 RMK A01 T00021103  RH  045%=      5-min Rain = 0
KGO1 222220Z 33028G33KT 00/M10 A3002 RMK A01 T00021102  RH  045%=      5-min Rain = 0
KGO1 222221Z 33025G30KT 00/M10 A3002 RMK A01 T00021103  RH  045%=      5-min Rain = 0
KGO1 222222Z 34023G28KT 00/M10 A3002 RMK A01 T00021102  RH  045%=      5-min Rain = 0
KGO1 222223Z 34025G32KT 00/M10 A3002 RMK A01 T00031102  RH  045%=      5-min Rain = 0
KGO1 222224Z 35027G33KT 00/M10 A3003 RMK A01 T00031102  RH  045%=      5-min Rain = 0
KGO1 222225Z 34026G31KT 00/M10 A3003 RMK A01 T00021104  RH  045%=      5-min Rain = 0
KGO1 222226Z 34024G30KT 00/M10 A3003 RMK A01 T00021102  RH  045%=      5-min Rain = 0
KGO1 222227Z 34020G25KT 00/M10 A3003 RMK A01 T00021102  RH  045%=      5-min Rain = 0
KGO1 222228Z 35026G31KT 00/M10 A3003 RMK A01 T00031102  RH  045%=      5-min Rain = 0
KGO1 222229Z 34025G30KT 00/M10 A3003 RMK A01 T00041102  RH  045%=      5-min Rain = 0
KGO1 222230Z 34027G34KT 00/M10 A3003 RMK A01 T00031103  RH  045%=      5-min Rain = 0
KGO1 222231Z 34027G36KT 00/M10 A3003 RMK A01 T00031104  RH  045%=      5-min Rain = 0
KGO1 222232Z 33030G37KT 00/M11 A3003 RMK A01 T00011106  RH  045%=      5-min Rain = 0
KGO1 222233Z 35026G32KT M00/M11 A3003 RMK A01 T10011106  RH  045%=      5-min Rain = 0
KGO1 222234Z 34030G35KT M00/M11 A3003 RMK A01 T10011105  RH  045%=      5-min Rain = 0
KGO1 222235Z 34030KT M00/M11 A3003 RMK A01 T10021105  RH  046%=      5-min Rain = 0
KGO1 222236Z 35026G33KT M00/M10 A3003 RMK A01 T10021104  RH  046%=      5-min Rain = 0
KGO1 222237Z 35027KT M00/M10 A3003 RMK A01 T10021104  RH  046%=      5-min Rain = 0
KGO1 222238Z 34026G34KT M00/M11 A3003 RMK A01 T10031105  RH  046%=      5-min Rain = 0
KGO1 222239Z 35024G29KT M00/M10 A3003 RMK A01 T10031104  RH  046%=      5-min Rain = 0
KGO1 222240Z 34024G32KT M00/M10 A3003 RMK A01 T10031104  RH  046%=      5-min Rain = 0
KGO1 222241Z 33024G29KT M00/M11 A3003 RMK A01 T10031105  RH  046%=      5-min Rain = 0
KGO1 222242Z 34024G30KT M00/M11 A3003 RMK A01 T10031105  RH  046%=      5-min Rain = 0
KGO1 222243Z 35026G32KT M00/M11 A3003 RMK A01 T10041106  RH  046%=      5-min Rain = 0
KGO1 222244Z 35024G32KT M00/M11 A3003 RMK A01 T10041107  RH  046%=      5-min Rain = 0
KGO1 222245Z 34027G32KT M00/M11 A3003 RMK A01 T10041107  RH  046%=      5-min Rain = 0
KGO1 222246Z 34023G30KT M01/M11 A3004 RMK A01 T10051107  RH  046%=      5-min Rain = 0
KGO1 222247Z 34022G27KT M01/M11 A3004 RMK A01 T10051106  RH  046%=      5-min Rain = 0
KGO1 222248Z 34023G32KT M01/M11 A3003 RMK A01 T10051106  RH  046%=      5-min Rain = 0
KGO1 222249Z 34026G32KT M01/M11 A3003 RMK A01 T10051106  RH  046%=      5-min Rain = 0
KGO1 222250Z 34027KT M01/M11 A3003 RMK A01 T10061107  RH  046%=      5-min Rain = 0
KGO1 222251Z 34023G29KT M01/M11 A3004 RMK A01 T10071108  RH  046%=      5-min Rain = 0
KGO1 222252Z 34023KT M01/M11 A3004 RMK A01 T10071107  RH  047%=      5-min Rain = 0
KGO1 222253Z 34023KT M01/M11 A3003 RMK A01 T10071106  RH  047%=      5-min Rain = 0
KGO1 222254Z 34020KT M01/M11 A3004 RMK A01 T10071106  RH  047%=      5-min Rain = 0
KGO1 222255Z 34020G25KT M01/M11 A3004 RMK A01 T10061105  RH  047%=      5-min Rain = 0
KGO1 222256Z 35027G34KT M01/M11 A3004 RMK A01 T10061106  RH  047%=      5-min Rain = 0
KGO1 222257Z 35031G38KT M01/M11 A3004 RMK A01 T10061107  RH  047%=      5-min Rain = 0
KGO1 222258Z 35027G35KT M01/M11 A3004 RMK A01 T10081108  RH  047%=      5-min Rain = 0
KGO1 222259Z 35032G38KT M01/M11 A3004 RMK A01 T10091108  RH  047%=      5-min Rain = 0
KGO1 222300Z 34025G34KT M01/M11 A3004 RMK A01 T10091108  RH  047%=      5-min Rain = 0
KGO1 222301Z 34027G34KT M01/M11 A3005 RMK A01 T10091108  RH  047%=      5-min Rain = 0
KGO1 222302Z 34023G28KT M01/M11 A3005 RMK A01 T10101108  RH  047%=      5-min Rain = 0
KGO1 222303Z 34022G28KT M01/M11 A3005 RMK A01 T10101107  RH  048%=      5-min Rain = 0
KGO1 222304Z 35026G36KT M01/M11 A3005 RMK A01 T10101107  RH  048%=      5-min Rain = 0
KGO1 222305Z 34025G32KT M01/M11 A3005 RMK A01 T10101107  RH  048%=      5-min Rain = 0
KGO1 222306Z 34025KT M01/M11 A3005 RMK A01 T10091107  RH  048%=      5-min Rain = 0
KGO1 222307Z 35018KT M01/M11 A3005 RMK A01 T10101107  RH  048%=      5-min Rain = 0
KGO1 222308Z 35019G27KT M01/M11 A3005 RMK A01 T10101107  RH  048%=      5-min Rain = 0
KGO1 222309Z 35026G31KT M01/M11 A3005 RMK A01 T10091106  RH  048%=      5-min Rain = 0
KGO1 222310Z 35027KT M01/M11 A3004 RMK A01 T10101107  RH  048%=      5-min Rain = 0
KGO1 222311Z 35027G32KT M01/M11 A3004 RMK A01 T10111107  RH  048%=      5-min Rain = 0
KGO1 222312Z 35029KT M01/M11 A3004 RMK A01 T10121108  RH  048%=      5-min Rain = 0
KGO1 222313Z 35027G35KT M01/M11 A3005 RMK A01 T10131107  RH  049%=      5-min Rain = 0
KGO1 222314Z 36030KT M01/M11 A3005 RMK A01 T10131107  RH  049%=      5-min Rain = 0
KGO1 222315Z 35020G25KT M01/M11 A3005 RMK A01 T10141107  RH  049%=      5-min Rain = 0
KGO1 222316Z 35027G33KT M01/M11 A3006 RMK A01 T10141106  RH  049%=      5-min Rain = 0
KGO1 222317Z 35027KT M01/M11 A3006 RMK A01 T10141107  RH  049%=      5-min Rain = 0
KGO1 222318Z 35023G30KT M02/M11 A3006 RMK A01 T10151107  RH  049%=      5-min Rain = 0
KGO1 222319Z 35022G28KT M02/M11 A3006 RMK A01 T10151107  RH  050%=      5-min Rain = 0
KGO1 222320Z 35026G35KT M02/M11 A3006 RMK A01 T10151106  RH  050%=      5-min Rain = 0
KGO1 222321Z 35026KT M02/M11 A3006 RMK A01 T10161106  RH  050%=      5-min Rain = 0
KGO1 222322Z 34023KT M02/M11 A3006 RMK A01 T10161106  RH  050%=      5-min Rain = 0
KGO1 222323Z 34023KT M02/M11 A3006 RMK A01 T10161105  RH  050%=      5-min Rain = 0
KGO1 222324Z 35023G34KT M02/M11 A3006 RMK A01 T10161105  RH  050%=      5-min Rain = 0
KGO1 222325Z 34024G30KT M02/M11 A3006 RMK A01 T10161105  RH  050%=      5-min Rain = 0
KGO1 222326Z 35023G31KT M02/M11 A3006 RMK A01 T10161106  RH  051%=      5-min Rain = 0
KGO1 222327Z 35024G29KT M02/M11 A3006 RMK A01 T10161105  RH  051%=      5-min Rain = 0
KGO1 222328Z 35021KT M02/M10 A3006 RMK A01 T10161104  RH  051%=      5-min Rain = 0
KGO1 222329Z 34020KT M02/M10 A3006 RMK A01 T10161104  RH  051%=      5-min Rain = 0
KGO1 222330Z 34023G32KT M02/M10 A3006 RMK A01 T10161104  RH  051%=      5-min Rain = 0
KGO1 222331Z 34026KT M02/M10 A3006 RMK A01 T10171104  RH  051%=      5-min Rain = 0
KGO1 222332Z 34025G31KT M02/M11 A3006 RMK A01 T10171105  RH  051%=      5-min Rain = 0
KGO1 222333Z 34022KT M02/M11 A3006 RMK A01 T10181105  RH  051%=      5-min Rain = 0
KGO1 222334Z 34027G33KT M02/M10 A3006 RMK A01 T10181104  RH  052%=      5-min Rain = 0
KGO1 222335Z 34025G31KT M02/M10 A3007 RMK A01 T10181104  RH  052%=      5-min Rain = 0
KGO1 222336Z 34022KT M02/M10 A3007 RMK A01 T10181104  RH  052%=      5-min Rain = 0
KGO1 222337Z 34017G22KT M02/M10 A3007 RMK A01 T10191104  RH  052%=      5-min Rain = 0
KGO1 222338Z 34018KT M02/M11 A3007 RMK A01 T10201105  RH  052%=      5-min Rain = 0
KGO1 222339Z 34022G27KT M02/M10 A3007 RMK A01 T10201104  RH  053%=      5-min Rain = 0
KGO1 222340Z 33022KT M02/M10 A3006 RMK A01 T10201103  RH  053%=      5-min Rain = 0
KGO1 222341Z 34021G26KT M02/M10 A3007 RMK A01 T10201103  RH  053%=      5-min Rain = 0
KGO1 222342Z 34018G24KT M02/M10 A3007 RMK A01 T10201103  RH  053%=      5-min Rain = 0
KGO1 222343Z 34018G23KT M02/M10 A3007 RMK A01 T10201103  RH  053%=      5-min Rain = 0
KGO1 222344Z 33022KT M02/M10 A3006 RMK A01 T10201103  RH  053%=      5-min Rain = 0
KGO1 222345Z 34021KT M02/M10 A3007 RMK A01 T10201103  RH  053%=      5-min Rain = 0
KGO1 222346Z 34021KT M02/M10 A3007 RMK A01 T10201103  RH  053%=      5-min Rain = 0
KGO1 222347Z 34018KT M02/M10 A3007 RMK A01 T10201103  RH  053%=      5-min Rain = 0
KGO1 222348Z 34018KT M02/M10 A3007 RMK A01 T10211103  RH  053%=      5-min Rain = 0
KGO1 222349Z 33016G21KT M02/M10 A3007 RMK A01 T10211103  RH  054%=      5-min Rain = 0
KGO1 222350Z 34015G20KT M02/M10 A3007 RMK A01 T10221103  RH  054%=      5-min Rain = 0
KGO1 222351Z 34017KT M02/M10 A3007 RMK A01 T10221103  RH  054%=      5-min Rain = 0
KGO1 222352Z 34018KT M02/M10 A3007 RMK A01 T10231103  RH  054%=      5-min Rain = 0
KGO1 222353Z 34017KT M02/M10 A3007 RMK A01 T10231104  RH  054%=      5-min Rain = 0
KGO1 222354Z 34016G21KT M02/M10 A3007 RMK A01 T10241104  RH  054%=      5-min Rain = 0
KGO1 222355Z 34017KT M02/M10 A3007 RMK A01 T10241104  RH  054%=      5-min Rain = 0
KGO1 222356Z 34018KT M02/M10 A3008 RMK A01 T10241104  RH  054%=      5-min Rain = 0
KGO1 222357Z 34017KT M02/M10 A3007 RMK A01 T10241103  RH  054%=      5-min Rain = 0
KGO1 222358Z 34020KT M02/M10 A3008 RMK A01 T10241104  RH  054%=      5-min Rain = 0
KGO1 222359Z 34018G23KT M02/M10 A3008 RMK A01 T10241103  RH  055%=      5-min Rain = 0
KGO1 230000Z 35022KT M03/M10 A3008 RMK A01 T10251103  RH  055%=      5-min Rain = 0
KGO1 230001Z 34017G25KT M02/M10 A3008 RMK A01 T10241103  RH  055%=      5-min Rain = 0
KGO1 230002Z 34018G23KT M03/M10 A3008 RMK A01 T10251103  RH  055%=      5-min Rain = 0
KGO1 230003Z 34019G24KT M03/M10 A3008 RMK A01 T10251102  RH  055%=      5-min Rain = 0
KGO1 230004Z 34019G25KT M03/M10 A3008 RMK A01 T10251102  RH  056%=      5-min Rain = 0
KGO1 230005Z 34022G27KT M03/M10 A3008 RMK A01 T10261102  RH  056%=      5-min Rain = 0
KGO1 230006Z 34019KT M03/M10 A3008 RMK A01 T10261102  RH  056%=      5-min Rain = 0
KGO1 230007Z 34018KT M03/M10 A3008 RMK A01 T10261101  RH  056%=      5-min Rain = 0
KGO1 230008Z 35019KT M03/M10 A3008 RMK A01 T10261102  RH  056%=      5-min Rain = 0
KGO1 230009Z 34016G21KT M03/M10 A3008 RMK A01 T10271101  RH  057%=      5-min Rain = 0
KGO1 230010Z 34018KT M03/M10 A3008 RMK A01 T10281102  RH  057%=      5-min Rain = 0
KGO1 230011Z 34020G25KT M03/M10 A3008 RMK A01 T10281102  RH  057%=      5-min Rain = 0
KGO1 230012Z 34017KT M03/M10 A3008 RMK A01 T10291101  RH  057%=      5-min Rain = 0
KGO1 230013Z 34018G23KT M03/M10 A3008 RMK A01 T10291101  RH  058%=      5-min Rain = 0
KGO1 230014Z 34018KT M03/M10 A3009 RMK A01 T10301101  RH  058%=      5-min Rain = 0
KGO1 230015Z 34016G21KT M03/M10 A3009 RMK A01 T10301101  RH  058%=      5-min Rain = 0
KGO1 230016Z 34017KT M03/M10 A3009 RMK A01 T10311101  RH  058%=      5-min Rain = 0
KGO1 230017Z 34016KT M03/M10 A3009 RMK A01 T10311101  RH  059%=      5-min Rain = 0
KGO1 230018Z 34016G21KT M03/M10 A3009 RMK A01 T10321101  RH  059%=      5-min Rain = 0
KGO1 230019Z 34018KT M03/M10 A3009 RMK A01 T10321100  RH  059%=      5-min Rain = 0
KGO1 230020Z 34018G23KT M03/M10 A3009 RMK A01 T10321100  RH  059%=      5-min Rain = 0
KGO1 230021Z 34017KT M03/M10 A3009 RMK A01 T10321100  RH  059%=      5-min Rain = 0
KGO1 230022Z 34019KT M03/M10 A3009 RMK A01 T10321100  RH  060%=      5-min Rain = 0
KGO1 230023Z 34022KT M03/M10 A3009 RMK A01 T10321099  RH  060%=      5-min Rain = 0
KGO1 230024Z 34020KT M03/M10 A3009 RMK A01 T10321099  RH  060%=      5-min Rain = 0
KGO1 230025Z 34016KT M03/M10 A3009 RMK A01 T10321099  RH  060%=      5-min Rain = 0
KGO1 230026Z 34016KT M03/M10 A3009 RMK A01 T10331099  RH  060%=      5-min Rain = 0
KGO1 230027Z 34016G24KT M03/M10 A301 RMK A01 T10331099  RH  061%=      5-min Rain = 0
KGO1 230028Z 34018KT M03/M10 A301 RMK A01 T10331098  RH  061%=      5-min Rain = 0
KGO1 230029Z 34016KT M03/M10 A301 RMK A01 T10331098  RH  061%=      5-min Rain = 0
KGO1 230030Z 34016KT M03/M10 A301 RMK A01 T10341098  RH  061%=      5-min Rain = 0
KGO1 230031Z 34015KT M03/M10 A3009 RMK A01 T10341098  RH  061%=      5-min Rain = 0
KGO1 230032Z 34015KT M03/M10 A3009 RMK A01 T10341098  RH  061%=      5-min Rain = 0
KGO1 230033Z 34015KT M03/M10 A301 RMK A01 T10341098  RH  062%=      5-min Rain = 0
KGO1 230034Z 34014KT M03/M10 A3009 RMK A01 T10341098  RH  062%=      5-min Rain = 0
KGO1 230035Z 34015KT M04/M10 A3009 RMK A01 T10351098  RH  062%=      5-min Rain = 0
KGO1 230036Z 34015KT M04/M10 A3009 RMK A01 T10351098  RH  062%=      5-min Rain = 0
KGO1 230037Z 34014KT M04/M10 A3009 RMK A01 T10351097  RH  062%=      5-min Rain = 0
KGO1 230038Z 34014G19KT M04/M10 A3009 RMK A01 T10351097  RH  062%=      5-min Rain = 0
KGO1 230039Z 34016KT M04/M10 A3009 RMK A01 T10361098  RH  062%=      5-min Rain = 0
KGO1 230040Z 34015KT M04/M10 A3009 RMK A01 T10361097  RH  063%=      5-min Rain = 0
KGO1 230041Z 34014KT M04/M10 A301 RMK A01 T10361097  RH  063%=      5-min Rain = 0
KGO1 230042Z 34013KT M04/M10 A301 RMK A01 T10371097  RH  063%=      5-min Rain = 0
KGO1 230043Z 35012KT M04/M10 A301 RMK A01 T10371097  RH  063%=      5-min Rain = 0
KGO1 230044Z 34013KT M04/M10 A301 RMK A01 T10381098  RH  063%=      5-min Rain = 0
KGO1 230045Z 34014KT M04/M10 A301 RMK A01 T10381097  RH  064%=      5-min Rain = 0
KGO1 230046Z 34012KT M04/M10 A301 RMK A01 T10381097  RH  063%=      5-min Rain = 0
KGO1 230047Z 34011KT M04/M10 A301 RMK A01 T10381098  RH  063%=      5-min Rain = 0
KGO1 230048Z 34014KT M04/M10 A301 RMK A01 T10391098  RH  063%=      5-min Rain = 0
KGO1 230049Z 34013KT M04/M10 A301 RMK A01 T10391098  RH  064%=      5-min Rain = 0
KGO1 230050Z 34011KT M04/M10 A301 RMK A01 T10401098  RH  064%=      5-min Rain = 0
KGO1 230051Z 34012KT M04/M10 A301 RMK A01 T10411098  RH  064%=      5-min Rain = 0
KGO1 230052Z 34012KT M04/M10 A301 RMK A01 T10411098  RH  064%=      5-min Rain = 0
KGO1 230053Z 34013KT M04/M10 A301 RMK A01 T10411098  RH  064%=      5-min Rain = 0
KGO1 230054Z 34014KT M04/M10 A301 RMK A01 T10411098  RH  065%=      5-min Rain = 0
KGO1 230055Z 34013KT M04/M10 A301 RMK A01 T10411098  RH  065%=      5-min Rain = 0
KGO1 230056Z 34013KT M04/M10 A301 RMK A01 T10421098  RH  065%=      5-min Rain = 0
KGO1 230057Z 34014KT M04/M10 A301 RMK A01 T10421097  RH  065%=      5-min Rain = 0
KGO1 230058Z 34016KT M04/M10 A301 RMK A01 T10431097  RH  066%=      5-min Rain = 0
KGO1 230059Z 34015KT M04/M10 A301 RMK A01 T10431097  RH  066%=      5-min Rain = 0
KGO1 230100Z 34015KT M04/M10 A301 RMK A01 T10431097  RH  066%=      5-min Rain = 0
KGO1 230101Z 34015KT M04/M10 A301 RMK A01 T10431097  RH  066%=      5-min Rain = 0
KGO1 230102Z 34016G21KT M04/M10 A301 RMK A01 T10431097  RH  066%=      5-min Rain = 0
KGO1 230103Z 34015KT M04/M10 A301 RMK A01 T10431096  RH  066%=      5-min Rain = 0
KGO1 230104Z 34014KT M04/M10 A301 RMK A01 T10441096  RH  067%=      5-min Rain = 0
KGO1 230105Z 34016KT M04/M10 A301 RMK A01 T10441096  RH  067%=      5-min Rain = 0
KGO1 230106Z 34016KT M04/M10 A301 RMK A01 T10441096  RH  067%=      5-min Rain = 0
KGO1 230107Z 34015KT M04/M10 A301 RMK A01 T10441096  RH  067%=      5-min Rain = 0
KGO1 230108Z 34015KT M04/M10 A301 RMK A01 T10441095  RH  067%=      5-min Rain = 0
KGO1 230109Z 34015KT M04/M10 A301 RMK A01 T10441095  RH  067%=      5-min Rain = 0
KGO1 230110Z 34016KT M04/M10 A301 RMK A01 T10441095  RH  068%=      5-min Rain = 0
KGO1 230111Z 35017KT M05/M10 A301 RMK A01 T10451095  RH  068%=      5-min Rain = 0
KGO1 230112Z 34016KT M04/M09 A301 RMK A01 T10441094  RH  068%=      5-min Rain = 0
KGO1 230113Z 34015KT M04/M09 A301 RMK A01 T10441094  RH  068%=      5-min Rain = 0
KGO1 230114Z 34015KT M04/M09 A301 RMK A01 T10441094  RH  068%=      5-min Rain = 0
KGO1 230115Z 34017KT M04/M09 A301 RMK A01 T10441094  RH  068%=      5-min Rain = 0
KGO1 230116Z 34015KT M04/M09 A3011 RMK A01 T10441094  RH  068%=      5-min Rain = 0
KGO1 230117Z 34014KT M05/M09 A3011 RMK A01 T10451094  RH  068%=      5-min Rain = 0
KGO1 230118Z 34017G22KT M05/M09 A3011 RMK A01 T10451094  RH  069%=      5-min Rain = 0
KGO1 230119Z 34016KT M05/M09 A3011 RMK A01 T10451093  RH  069%=      5-min Rain = 0
KGO1 230120Z 34015KT M04/M09 A3011 RMK A01 T10441093  RH  069%=      5-min Rain = 0
KGO1 230121Z 34014KT M05/M09 A3011 RMK A01 T10451093  RH  069%=      5-min Rain = 0
KGO1 230122Z 34014KT M05/M09 A3011 RMK A01 T10451093  RH  069%=      5-min Rain = 0
KGO1 230123Z 34014KT M05/M09 A3011 RMK A01 T10451093  RH  069%=      5-min Rain = 0
KGO1 230124Z 34014KT M05/M09 A3011 RMK A01 T10451093  RH  069%=      5-min Rain = 0
KGO1 230125Z 34013KT M05/M09 A3011 RMK A01 T10451093  RH  070%=      5-min Rain = 0
KGO1 230126Z 34012KT M05/M09 A3011 RMK A01 T10461094  RH  070%=      5-min Rain = 0
KGO1 230127Z 33013KT M05/M09 A3011 RMK A01 T10471094  RH  070%=      5-min Rain = 0
KGO1 230128Z 34013KT M05/M09 A3011 RMK A01 T10471093  RH  070%=      5-min Rain = 0
KGO1 230129Z 34012KT M05/M09 A3011 RMK A01 T10471093  RH  070%=      5-min Rain = 0
KGO1 230130Z 34013KT M05/M09 A3011 RMK A01 T10481094  RH  070%=      5-min Rain = 0
KGO1 230131Z 34012KT M05/M09 A3011 RMK A01 T10481093  RH  071%=      5-min Rain = 0
KGO1 230132Z 33014KT M05/M09 A3011 RMK A01 T10481093  RH  071%=      5-min Rain = 0
KGO1 230133Z 33014KT M05/M09 A3011 RMK A01 T10481093  RH  071%=      5-min Rain = 0
KGO1 230134Z 33013KT M05/M09 A3011 RMK A01 T10471092  RH  071%=      5-min Rain = 0
KGO1 230135Z 33012KT M05/M09 A3011 RMK A01 T10471092  RH  071%=      5-min Rain = 0
KGO1 230136Z 33013KT M05/M09 A3011 RMK A01 T10481093  RH  071%=      5-min Rain = 0
KGO1 230137Z 33013KT M05/M09 A3011 RMK A01 T10481093  RH  071%=      5-min Rain = 0
KGO1 230138Z 34012KT M05/M09 A3011 RMK A01 T10481092  RH  071%=      5-min Rain = 0
KGO1 230139Z 33011G16KT M05/M09 A3011 RMK A01 T10481093  RH  071%=      5-min Rain = 0
KGO1 230140Z 33013KT M05/M09 A3011 RMK A01 T10491092  RH  072%=      5-min Rain = 0
KGO1 230141Z 33012KT M05/M09 A3011 RMK A01 T10491092  RH  072%=      5-min Rain = 0
KGO1 230142Z 33012KT M05/M09 A3011 RMK A01 T10491092  RH  072%=      5-min Rain = 0
KGO1 230143Z 34011KT M05/M09 A3011 RMK A01 T10491092  RH  072%=      5-min Rain = 0
KGO1 230144Z 34012KT M05/M09 A3011 RMK A01 T10501092  RH  072%=      5-min Rain = 0
KGO1 230145Z 34010KT M05/M09 A3011 RMK A01 T10511093  RH  073%=      5-min Rain = 0
KGO1 230146Z 33011KT M05/M09 A3011 RMK A01 T10511093  RH  073%=      5-min Rain = 0
KGO1 230147Z 33011KT M05/M09 A3011 RMK A01 T10521092  RH  073%=      5-min Rain = 0
KGO1 230148Z 34012KT M05/M09 A3011 RMK A01 T10521092  RH  073%=      5-min Rain = 0
KGO1 230149Z 34011KT M05/M09 A3011 RMK A01 T10521093  RH  073%=      5-min Rain = 0
KGO1 230150Z 33011KT M05/M09 A3011 RMK A01 T10521093  RH  073%=      5-min Rain = 0
KGO1 230151Z 33012KT M05/M09 A3011 RMK A01 T10521092  RH  073%=      5-min Rain = 0
KGO1 230152Z 33012KT M05/M09 A3011 RMK A01 T10521092  RH  073%=      5-min Rain = 0
KGO1 230153Z 33012KT M05/M09 A3011 RMK A01 T10521093  RH  073%=      5-min Rain = 0
KGO1 230154Z 33013KT M05/M09 A3011 RMK A01 T10531093  RH  074%=      5-min Rain = 0
KGO1 230155Z 33013KT M05/M09 A3011 RMK A01 T10531093  RH  074%=      5-min Rain = 0
KGO1 230201Z 33011KT M06/M09 A3012 RMK A01 T10551093  RH  074%=      5-min Rain = 0
KGO1 230202Z 33012KT M06/M09 A3012 RMK A01 T10551093  RH  075%=      5-min Rain = 0
KGO1 230203Z 33012KT M06/M09 A3012 RMK A01 T10551093  RH  075%=      5-min Rain = 0
KGO1 230204Z 33011KT M06/M09 A3012 RMK A01 T10561093  RH  075%=      5-min Rain = 0
KGO1 230205Z 33011KT M06/M09 A3012 RMK A01 T10561093  RH  075%=      5-min Rain = 0
KGO1 230206Z 33009KT M06/M09 A3012 RMK A01 T10561093  RH  075%=      5-min Rain = 0
KGO1 230207Z 33011KT M06/M09 A3012 RMK A01 T10571094  RH  075%=      5-min Rain = 0
KGO1 230208Z 33011KT M06/M09 A3012 RMK A01 T10571094  RH  075%=      5-min Rain = 0
KGO1 230209Z 33012KT M06/M09 A3012 RMK A01 T10571093  RH  076%=      5-min Rain = 0
KGO1 230210Z 33011KT M06/M09 A3012 RMK A01 T10581093  RH  076%=      5-min Rain = 0
KGO1 230211Z 33011KT M06/M09 A3012 RMK A01 T10581094  RH  076%=      5-min Rain = 0
KGO1 230212Z 33011KT M06/M09 A3012 RMK A01 T10581093  RH  076%=      5-min Rain = 0
KGO1 230213Z 33011KT M06/M09 A3012 RMK A01 T10581093  RH  076%=      5-min Rain = 0
KGO1 230214Z 33010KT M06/M09 A3012 RMK A01 T10581093  RH  076%=      5-min Rain = 0
KGO1 230215Z 33009KT M06/M09 A3012 RMK A01 T10581093  RH  076%=      5-min Rain = 0
KGO1 230216Z 33009KT M06/M09 A3012 RMK A01 T10581093  RH  076%=      5-min Rain = 0
KGO1 230217Z 33009KT M06/M09 A3012 RMK A01 T10591094  RH  076%=      5-min Rain = 0
KGO1 230218Z 33009KT M06/M09 A3012 RMK A01 T10591094  RH  077%=      5-min Rain = 0
KGO1 230219Z 33008KT M06/M09 A3012 RMK A01 T10601093  RH  077%=      5-min Rain = 0
KGO1 230220Z 32009KT M06/M09 A3012 RMK A01 T10601093  RH  077%=      5-min Rain = 0
KGO1 230221Z 33008KT M06/M09 A3012 RMK A01 T10601093  RH  077%=      5-min Rain = 0
KGO1 230222Z 32009KT M06/M09 A3012 RMK A01 T10601093  RH  077%=      5-min Rain = 0
KGO1 230223Z 32009KT M06/M09 A3012 RMK A01 T10601093  RH  078%=      5-min Rain = 0
KGO1 230224Z 33009KT M06/M09 A3013 RMK A01 T10601093  RH  078%=      5-min Rain = 0
KGO1 230225Z 33009KT M06/M09 A3013 RMK A01 T10601092  RH  078%=      5-min Rain = 0
KGO1 230226Z 33009KT M06/M09 A3013 RMK A01 T10601092  RH  078%=      5-min Rain = 0
KGO1 230227Z 33009KT M06/M09 A3013 RMK A01 T10601092  RH  078%=      5-min Rain = 0
KGO1 230228Z 33008KT M06/M09 A3013 RMK A01 T10601092  RH  078%=      5-min Rain = 0
KGO1 230229Z 33009KT M06/M09 A3013 RMK A01 T10601092  RH  078%=      5-min Rain = 0
KGO1 230230Z 33009KT M06/M09 A3013 RMK A01 T10611092  RH  078%=      5-min Rain = 0
KGO1 230231Z 33009KT M06/M09 A3013 RMK A01 T10611092  RH  079%=      5-min Rain = 0
KGO1 230232Z 33009KT M06/M09 A3013 RMK A01 T10611092  RH  079%=      5-min Rain = 0
KGO1 230233Z 33010KT M06/M09 A3013 RMK A01 T10611092  RH  079%=      5-min Rain = 0
KGO1 230234Z 33010KT M06/M09 A3013 RMK A01 T10611091  RH  079%=      5-min Rain = 0
KGO1 230235Z 33010KT M06/M09 A3013 RMK A01 T10611091  RH  079%=      5-min Rain = 0
KGO1 230236Z 33009KT M06/M09 A3013 RMK A01 T10611091  RH  079%=      5-min Rain = 0
KGO1 230237Z 33009KT M06/M09 A3013 RMK A01 T10611091  RH  079%=      5-min Rain = 0
KGO1 230238Z 33010KT M06/M09 A3013 RMK A01 T10611091  RH  079%=      5-min Rain = 0
KGO1 230239Z 33011KT M06/M09 A3013 RMK A01 T10611091  RH  079%=      5-min Rain = 0
KGO1 230240Z 33011KT M06/M09 A3013 RMK A01 T10611091  RH  080%=      5-min Rain = 0
KGO1 230241Z 33012KT M06/M09 A3013 RMK A01 T10611090  RH  080%=      5-min Rain = 0
KGO1 230242Z 33011KT M06/M09 A3013 RMK A01 T10601090  RH  080%=      5-min Rain = 0
KGO1 230243Z 33012KT M06/M09 A3013 RMK A01 T10601089  RH  080%=      5-min Rain = 0
KGO1 230244Z 33011KT M06/M09 A3013 RMK A01 T10591089  RH  079%=      5-min Rain = 0
KGO1 230245Z 33011KT M06/M09 A3013 RMK A01 T10601089  RH  079%=      5-min Rain = 0
KGO1 230246Z 33011KT M06/M09 A3013 RMK A01 T10601089  RH  080%=      5-min Rain = 0
KGO1 230247Z 33012KT M06/M09 A3013 RMK A01 T10591089  RH  080%=      5-min Rain = 0
KGO1 230248Z 33012KT M06/M09 A3013 RMK A01 T10591089  RH  080%=      5-min Rain = 0
KGO1 230249Z 34012KT M06/M09 A3013 RMK A01 T10601089  RH  080%=      5-min Rain = 0
KGO1 230250Z 33011KT M06/M09 A3013 RMK A01 T10601089  RH  080%=      5-min Rain = 0
KGO1 230251Z 33011KT M06/M09 A3013 RMK A01 T10601089  RH  080%=      5-min Rain = 0
KGO1 230252Z 33011KT M06/M09 A3013 RMK A01 T10601089  RH  080%=      5-min Rain = 0
KGO1 230253Z 33011KT M06/M09 A3013 RMK A01 T10601089  RH  081%=      5-min Rain = 0
KGO1 230254Z 34011KT M06/M09 A3013 RMK A01 T10601088  RH  081%=      5-min Rain = 0
KGO1 230255Z 33011KT M06/M09 A3013 RMK A01 T10601088  RH  081%=      5-min Rain = 0
KGO1 230256Z 33012KT M06/M09 A3013 RMK A01 T10611088  RH  081%=      5-min Rain = 0
KGO1 230257Z 33011KT M06/M09 A3013 RMK A01 T10611088  RH  081%=      5-min Rain = 0
KGO1 230258Z 33011KT M06/M09 A3013 RMK A01 T10611088  RH  081%=      5-min Rain = 0
KGO1 230259Z 33011KT M06/M09 A3013 RMK A01 T10611088  RH  081%=      5-min Rain = 0
KGO1 230300Z 33011KT M06/M09 A3013 RMK A01 T10611088  RH  081%=      5-min Rain = 0
KGO1 230301Z 33012KT M06/M09 A3013 RMK A01 T10611088  RH  081%=      5-min Rain = 0
KGO1 230302Z 33011KT M06/M09 A3013 RMK A01 T10611087  RH  082%=      5-min Rain = 0
KGO1 230303Z 33010KT M06/M09 A3013 RMK A01 T10611088  RH  082%=      5-min Rain = 0
KGO1 230304Z 33010KT M06/M09 A3013 RMK A01 T10621088  RH  082%=      5-min Rain = 0
KGO1 230305Z 33011KT M06/M09 A3013 RMK A01 T10621088  RH  082%=      5-min Rain = 0
KGO1 230306Z 33011KT M06/M09 A3013 RMK A01 T10621087  RH  082%=      5-min Rain = 0
KGO1 230307Z 33010KT M06/M09 A3013 RMK A01 T10621087  RH  082%=      5-min Rain = 0
KGO1 230308Z 33010KT M06/M09 A3013 RMK A01 T10631088  RH  082%=      5-min Rain = 0
KGO1 230309Z 33009KT M06/M09 A3013 RMK A01 T10631087  RH  083%=      5-min Rain = 0
KGO1 230310Z 33010KT M06/M09 A3013 RMK A01 T10631087  RH  083%=      5-min Rain = 0
KGO1 230311Z 33011KT M06/M09 A3013 RMK A01 T10631087  RH  083%=      5-min Rain = 0
KGO1 230312Z 33010KT M06/M09 A3013 RMK A01 T10631087  RH  083%=      5-min Rain = 0
KGO1 230313Z 33011KT M06/M09 A3013 RMK A01 T10631086  RH  083%=      5-min Rain = 0
KGO1 230314Z 33012KT M06/M09 A3013 RMK A01 T10621086  RH  083%=      5-min Rain = 0
KGO1 230315Z 33011KT M06/M09 A3013 RMK A01 T10621086  RH  083%=      5-min Rain = 0
KGO1 230316Z 33012KT M06/M09 A3013 RMK A01 T10621086  RH  083%=      5-min Rain = 0
KGO1 230317Z 33012KT M06/M09 A3013 RMK A01 T10611085  RH  083%=      5-min Rain = 0
KGO1 230318Z 33012KT M06/M09 A3013 RMK A01 T10611085  RH  083%=      5-min Rain = 0
KGO1 230319Z 33011KT M06/M09 A3014 RMK A01 T10611085  RH  083%=      5-min Rain = 0
KGO1 230320Z 33012KT M06/M09 A3013 RMK A01 T10611085  RH  083%=      5-min Rain = 0
KGO1 230321Z 33012KT M06/M09 A3014 RMK A01 T10611085  RH  083%=      5-min Rain = 0
KGO1 230322Z 33012KT M06/M08 A3014 RMK A01 T10601084  RH  083%=      5-min Rain = 0
KGO1 230323Z 33012KT M06/M09 A3014 RMK A01 T10601085  RH  083%=      5-min Rain = 0
KGO1 230324Z 33011KT M06/M09 A3014 RMK A01 T10611085  RH  083%=      5-min Rain = 0
KGO1 230325Z 33011KT M06/M08 A3014 RMK A01 T10601084  RH  083%=      5-min Rain = 0
KGO1 230326Z 33010KT M06/M08 A3014 RMK A01 T10601084  RH  083%=      5-min Rain = 0
KGO1 230327Z 33011KT M06/M08 A3014 RMK A01 T10601084  RH  083%=      5-min Rain = 0
KGO1 230328Z 33012KT M06/M08 A3014 RMK A01 T10601084  RH  084%=      5-min Rain = 0
KGO1 230329Z 33012KT M06/M08 A3014 RMK A01 T10601083  RH  084%=      5-min Rain = 0
KGO1 230330Z 33011KT M06/M08 A3014 RMK A01 T10601083  RH  084%=      5-min Rain = 0
KGO1 230331Z 33011KT M06/M08 A3014 RMK A01 T10601083  RH  084%=      5-min Rain = 0
KGO1 230332Z 32012KT M06/M08 A3014 RMK A01 T10601083  RH  084%=      5-min Rain = 0
KGO1 230333Z 32012KT M06/M08 A3014 RMK A01 T10601082  RH  084%=      5-min Rain = 0
KGO1 230334Z 33014KT M06/M08 A3013 RMK A01 T10591082  RH  084%=      5-min Rain = 0
KGO1 230335Z 33013KT M06/M08 A3013 RMK A01 T10581081  RH  084%=      5-min Rain = 0
KGO1 230336Z 33012KT M06/M08 A3013 RMK A01 T10581081  RH  084%=      5-min Rain = 0
KGO1 230337Z 33015KT M06/M08 A3013 RMK A01 T10581081  RH  084%=      5-min Rain = 0
KGO1 230338Z 33014KT M06/M08 A3013 RMK A01 T10571079  RH  084%=      5-min Rain = 0
KGO1 230339Z 33013KT M06/M08 A3013 RMK A01 T10571079  RH  084%=      5-min Rain = 0
KGO1 230340Z 33015KT M06/M08 A3013 RMK A01 T10561079  RH  084%=      5-min Rain = 0
KGO1 230341Z 33015G20KT M06/M08 A3013 RMK A01 T10561078  RH  084%=      5-min Rain = 0
KGO1 230342Z 33017KT M06/M08 A3013 RMK A01 T10551078  RH  084%=      5-min Rain = 0
KGO1 230343Z 33017KT M05/M08 A3013 RMK A01 T10541077  RH  084%=      5-min Rain = 0
KGO1 230344Z 33015KT M05/M08 A3013 RMK A01 T10541077  RH  084%=      5-min Rain = 0
KGO1 230345Z 33015KT M05/M08 A3013 RMK A01 T10541077  RH  083%=      5-min Rain = 0
KGO1 230346Z 33017KT M05/M08 A3013 RMK A01 T10541077  RH  084%=      5-min Rain = 0
KGO1 230347Z 33016KT M05/M08 A3013 RMK A01 T10541077  RH  084%=      5-min Rain = 0
KGO1 230348Z 32015KT M05/M08 A3013 RMK A01 T10541077  RH  084%=      5-min Rain = 0
KGO1 230349Z 33016KT M05/M08 A3013 RMK A01 T10531077  RH  084%=      5-min Rain = 0
KGO1 230350Z 33016KT M05/M08 A3013 RMK A01 T10531076  RH  084%=      5-min Rain = 0
KGO1 230351Z 33016KT M05/M08 A3013 RMK A01 T10531076  RH  084%=      5-min Rain = 0
KGO1 230352Z 33015KT M05/M08 A3013 RMK A01 T10521076  RH  083%=      5-min Rain = 0
KGO1 230353Z 33016KT M05/M08 A3013 RMK A01 T10521076  RH  083%=      5-min Rain = 0
KGO1 230354Z 33015KT M05/M08 A3013 RMK A01 T10521076  RH  083%=      5-min Rain = 0
KGO1 230355Z 33014KT M05/M08 A3013 RMK A01 T10521076  RH  083%=      5-min Rain = 0
KGO1 230356Z 33016KT M05/M08 A3013 RMK A01 T10531077  RH  083%=      5-min Rain = 0
KGO1 230357Z 33017KT M05/M08 A3013 RMK A01 T10521076  RH  084%=      5-min Rain = 0
KGO1 230358Z 33019G25KT M05/M08 A3013 RMK A01 T10511075  RH  083%=      5-min Rain = 0
KGO1 230359Z 33017G22KT M05/M08 A3013 RMK A01 T10501075  RH  083%=      5-min Rain = 0
KGO1 230400Z 33015G20KT M05/M08 A3013 RMK A01 T10501075  RH  083%=      5-min Rain = 0
KGO1 230401Z 33019KT M05/M08 A3013 RMK A01 T10501076  RH  082%=      5-min Rain = 0
KGO1 230402Z 33018KT M05/M08 A3013 RMK A01 T10501075  RH  082%=      5-min Rain = 0
KGO1 230403Z 33017KT M05/M08 A3013 RMK A01 T10491075  RH  082%=      5-min Rain = 0
KGO1 230404Z 33016G21KT M05/M08 A3014 RMK A01 T10491076  RH  082%=      5-min Rain = 0
KGO1 230405Z 33016KT M05/M08 A3013 RMK A01 T10501076  RH  082%=      5-min Rain = 0
KGO1 230406Z 33014KT M05/M08 A3014 RMK A01 T10501076  RH  082%=      5-min Rain = 0
KGO1 230407Z 33017KT M05/M08 A3013 RMK A01 T10501076  RH  082%=      5-min Rain = 0
KGO1 230408Z 33017KT M05/M08 A3013 RMK A01 T10491076  RH  082%=      5-min Rain = 0
KGO1 230409Z 33013KT M05/M07 A3013 RMK A01 T10481074  RH  081%=      5-min Rain = 0
KGO1 230410Z 33015KT M05/M08 A3013 RMK A01 T10481075  RH  081%=      5-min Rain = 0
KGO1 230411Z 33017KT M05/M08 A3013 RMK A01 T10491075  RH  081%=      5-min Rain = 0
KGO1 230412Z 33016KT M05/M08 A3013 RMK A01 T10491075  RH  082%=      5-min Rain = 0
KGO1 230413Z 33015KT M05/M08 A3013 RMK A01 T10491075  RH  082%=      5-min Rain = 0
KGO1 230414Z 33017G23KT M05/M08 A3013 RMK A01 T10481075  RH  082%=      5-min Rain = 0
KGO1 230415Z 33016G21KT M05/M08 A3013 RMK A01 T10481075  RH  081%=      5-min Rain = 0
KGO1 230416Z 33018KT M05/M08 A3013 RMK A01 T10481075  RH  081%=      5-min Rain = 0
KGO1 230417Z 33017KT M05/M08 A3013 RMK A01 T10471075  RH  081%=      5-min Rain = 0
KGO1 230418Z 33018KT M05/M08 A3013 RMK A01 T10471075  RH  081%=      5-min Rain = 0
KGO1 230419Z 33014KT M05/M08 A3013 RMK A01 T10471075  RH  081%=      5-min Rain = 0
KGO1 230420Z 33015KT M05/M08 A3013 RMK A01 T10471076  RH  081%=      5-min Rain = 0
KGO1 230421Z 33017G22KT M05/M08 A3013 RMK A01 T10481076  RH  081%=      5-min Rain = 0
KGO1 230422Z 33020KT M05/M08 A3013 RMK A01 T10471075  RH  081%=      5-min Rain = 0
KGO1 230423Z 33017KT M05/M08 A3013 RMK A01 T10461075  RH  080%=      5-min Rain = 0
KGO1 230424Z 33016KT M05/M08 A3013 RMK A01 T10461075  RH  080%=      5-min Rain = 0
KGO1 230425Z 33017KT M05/M08 A3013 RMK A01 T10461075  RH  080%=      5-min Rain = 0
KGO1 230426Z 33018G24KT M05/M08 A3013 RMK A01 T10461075  RH  080%=      5-min Rain = 0
KGO1 230427Z 33017KT M05/M08 A3013 RMK A01 T10451075  RH  080%=      5-min Rain = 0
KGO1 230428Z 33018KT M05/M08 A3013 RMK A01 T10461076  RH  080%=      5-min Rain = 0
KGO1 230429Z 33018KT M05/M08 A3014 RMK A01 T10451076  RH  079%=      5-min Rain = 0
KGO1 230430Z 33017G24KT M05/M08 A3013 RMK A01 T10451076  RH  079%=      5-min Rain = 0
KGO1 230431Z 33020KT M05/M08 A3014 RMK A01 T10451076  RH  079%=      5-min Rain = 0
KGO1 230432Z 33017KT M05/M08 A3014 RMK A01 T10451076  RH  079%=      5-min Rain = 0
KGO1 230433Z 33018KT M05/M08 A3014 RMK A01 T10451076  RH  079%=      5-min Rain = 0
KGO1 230434Z 33018KT M05/M08 A3014 RMK A01 T10451076  RH  079%=      5-min Rain = 0
KGO1 230435Z 33017KT M05/M08 A3014 RMK A01 T10451076  RH  079%=      5-min Rain = 0
KGO1 230436Z 33017KT M04/M08 A3014 RMK A01 T10441076  RH  078%=      5-min Rain = 0
KGO1 230437Z 33016KT M04/M08 A3014 RMK A01 T10441076  RH  078%=      5-min Rain = 0
KGO1 230438Z 33015G20KT M05/M08 A3014 RMK A01 T10451076  RH  079%=      5-min Rain = 0
KGO1 230439Z 33015KT M05/M08 A3014 RMK A01 T10461077  RH  079%=      5-min Rain = 0
KGO1 230440Z 33014KT M05/M08 A3014 RMK A01 T10461077  RH  079%=      5-min Rain = 0
KGO1 230441Z 33015G22KT M05/M08 A3014 RMK A01 T10461077  RH  079%=      5-min Rain = 0
KGO1 230442Z 33017KT M05/M08 A3014 RMK A01 T10461077  RH  079%=      5-min Rain = 0
KGO1 230443Z 33015KT M05/M08 A3014 RMK A01 T10461077  RH  079%=      5-min Rain = 0
KGO1 230444Z 33015KT M05/M08 A3014 RMK A01 T10471078  RH  079%=      5-min Rain = 0
KGO1 230445Z 33016KT M05/M08 A3014 RMK A01 T10471077  RH  079%=      5-min Rain = 0
KGO1 230446Z 33017KT M05/M08 A3014 RMK A01 T10461077  RH  079%=      5-min Rain = 0
KGO1 230447Z 33019KT M05/M08 A3014 RMK A01 T10461077  RH  079%=      5-min Rain = 0
KGO1 230448Z 33018KT M05/M08 A3014 RMK A01 T10451077  RH  078%=      5-min Rain = 0
KGO1 230449Z 33018KT M05/M08 A3014 RMK A01 T10451078  RH  078%=      5-min Rain = 0
KGO1 230450Z 33016KT M05/M08 A3014 RMK A01 T10451077  RH  078%=      5-min Rain = 0
KGO1 230451Z 33015KT M05/M08 A3014 RMK A01 T10451078  RH  078%=      5-min Rain = 0
KGO1 230452Z 33016KT M05/M08 A3014 RMK A01 T10461078  RH  078%=      5-min Rain = 0
KGO1 230453Z 33015KT M05/M08 A3014 RMK A01 T10471078  RH  079%=      5-min Rain = 0
KGO1 230454Z 33016KT M05/M08 A3014 RMK A01 T10471078  RH  079%=      5-min Rain = 0
KGO1 230455Z 33015KT M05/M08 A3014 RMK A01 T10471078  RH  079%=      5-min Rain = 0
KGO1 230456Z 33018KT M05/M08 A3014 RMK A01 T10471078  RH  079%=      5-min Rain = 0
KGO1 230457Z 33016KT M05/M08 A3014 RMK A01 T10471078  RH  079%=      5-min Rain = 0
KGO1 230458Z 33018KT M05/M08 A3014 RMK A01 T10471078  RH  079%=      5-min Rain = 0
KGO1 230459Z 33016KT M05/M08 A3014 RMK A01 T10471078  RH  079%=      5-min Rain = 0
KGO1 230500Z 33014KT M05/M08 A3014 RMK A01 T10471079  RH  078%=      5-min Rain = 0
KGO1 230501Z 33014KT M05/M08 A3014 RMK A01 T10481079  RH  079%=      5-min Rain = 0
KGO1 230502Z 33015KT M05/M08 A3014 RMK A01 T10481079  RH  079%=      5-min Rain = 0
KGO1 230503Z 33015KT M05/M08 A3014 RMK A01 T10481079  RH  079%=      5-min Rain = 0
KGO1 230504Z 33016KT M05/M08 A3014 RMK A01 T10481079  RH  079%=      5-min Rain = 0
KGO1 230505Z 33014KT M05/M08 A3014 RMK A01 T10481079  RH  079%=      5-min Rain = 0
KGO1 230506Z 32015KT M05/M08 A3014 RMK A01 T10481079  RH  079%=      5-min Rain = 0
KGO1 230507Z 33015KT M05/M08 A3014 RMK A01 T10491079  RH  079%=      5-min Rain = 0
KGO1 230508Z 32016KT M05/M08 A3014 RMK A01 T10491079  RH  079%=      5-min Rain = 0
KGO1 230509Z 32014G19KT M05/M08 A3014 RMK A01 T10491079  RH  079%=      5-min Rain = 0
KGO1 230510Z 33015KT M05/M08 A3014 RMK A01 T10481079  RH  079%=      5-min Rain = 0
KGO1 230511Z 33017KT M05/M08 A3014 RMK A01 T10491079  RH  079%=      5-min Rain = 0
KGO1 230512Z 33014KT M05/M08 A3014 RMK A01 T10491079  RH  079%=      5-min Rain = 0
KGO1 230513Z 33015KT M05/M08 A3014 RMK A01 T10491080  RH  079%=      5-min Rain = 0
KGO1 230514Z 33015KT M05/M08 A3014 RMK A01 T10491080  RH  079%=      5-min Rain = 0
KGO1 230515Z 32015KT M05/M08 A3014 RMK A01 T10491079  RH  079%=      5-min Rain = 0
KGO1 230516Z 32015KT M05/M08 A3014 RMK A01 T10491080  RH  079%=      5-min Rain = 0
KGO1 230517Z 33014KT M05/M08 A3014 RMK A01 T10491080  RH  079%=      5-min Rain = 0
KGO1 230518Z 33014G19KT M05/M08 A3014 RMK A01 T10501080  RH  079%=      5-min Rain = 0
KGO1 230519Z 33014KT M05/M08 A3014 RMK A01 T10501080  RH  079%=      5-min Rain = 0
KGO1 230520Z 33015KT M05/M08 A3014 RMK A01 T10501080  RH  079%=      5-min Rain = 0
KGO1 230521Z 33015KT M05/M08 A3014 RMK A01 T10501080  RH  079%=      5-min Rain = 0
KGO1 230522Z 32014KT M05/M08 A3014 RMK A01 T10501081  RH  079%=      5-min Rain = 0
KGO1 230523Z 33014KT M05/M08 A3014 RMK A01 T10501081  RH  079%=      5-min Rain = 0
KGO1 230524Z 33015KT M05/M08 A3014 RMK A01 T10501081  RH  079%=      5-min Rain = 0
KGO1 230525Z 33013KT M05/M08 A3014 RMK A01 T10501080  RH  079%=      5-min Rain = 0
KGO1 230526Z 33014KT M05/M08 A3014 RMK A01 T10511081  RH  079%=      5-min Rain = 0
KGO1 230527Z 33014KT M05/M08 A3014 RMK A01 T10511081  RH  079%=      5-min Rain = 0
KGO1 230528Z 33015KT M05/M08 A3014 RMK A01 T10511081  RH  079%=      5-min Rain = 0
KGO1 230529Z 33013KT M05/M08 A3014 RMK A01 T10511081  RH  079%=      5-min Rain = 0
KGO1 230530Z 33014KT M05/M08 A3014 RMK A01 T10511081  RH  079%=      5-min Rain = 0
KGO1 230531Z 33014KT M05/M08 A3014 RMK A01 T10511082  RH  079%=      5-min Rain = 0
KGO1 230532Z 33012KT M05/M08 A3014 RMK A01 T10511081  RH  079%=      5-min Rain = 0
KGO1 230533Z 33013KT M05/M08 A3014 RMK A01 T10511082  RH  079%=      5-min Rain = 0
KGO1 230534Z 33014KT M05/M08 A3014 RMK A01 T10511082  RH  079%=      5-min Rain = 0
KGO1 230535Z 33014KT M05/M08 A3014 RMK A01 T10511082  RH  079%=      5-min Rain = 0
KGO1 230536Z 33013KT M05/M08 A3014 RMK A01 T10511081  RH  079%=      5-min Rain = 0
KGO1 230537Z 33013KT M05/M08 A3014 RMK A01 T10511082  RH  079%=      5-min Rain = 0
KGO1 230538Z 33014KT M05/M08 A3014 RMK A01 T10511082  RH  079%=      5-min Rain = 0
KGO1 230539Z 33014KT M05/M08 A3014 RMK A01 T10511082  RH  079%=      5-min Rain = 0
KGO1 230540Z 33014KT M05/M08 A3014 RMK A01 T10511082  RH  079%=      5-min Rain = 0
KGO1 230541Z 33014KT M05/M08 A3014 RMK A01 T10511082  RH  079%=      5-min Rain = 0
KGO1 230542Z 33012KT M05/M08 A3014 RMK A01 T10511082  RH  079%=      5-min Rain = 0
KGO1 230543Z 33014KT M05/M08 A3014 RMK A01 T10511083  RH  079%=      5-min Rain = 0
KGO1 230544Z 33015KT M05/M08 A3014 RMK A01 T10521083  RH  079%=      5-min Rain = 0
KGO1 230545Z 33013KT M05/M08 A3014 RMK A01 T10511083  RH  078%=      5-min Rain = 0
KGO1 230546Z 33013KT M05/M08 A3014 RMK A01 T10511083  RH  078%=      5-min Rain = 0
KGO1 230547Z 33014G19KT M05/M08 A3014 RMK A01 T10511083  RH  078%=      5-min Rain = 0
KGO1 230548Z 33013KT M05/M08 A3014 RMK A01 T10511083  RH  078%=      5-min Rain = 0
KGO1 230549Z 33013KT M05/M08 A3014 RMK A01 T10511083  RH  078%=      5-min Rain = 0
KGO1 230550Z 33013KT M05/M08 A3014 RMK A01 T10511083  RH  078%=      5-min Rain = 0
KGO1 230551Z 33013KT M05/M08 A3014 RMK A01 T10511083  RH  078%=      5-min Rain = 0
KGO1 230552Z 33012KT M05/M08 A3014 RMK A01 T10511083  RH  078%=      5-min Rain = 0
KGO1 230553Z 32013KT M05/M08 A3014 RMK A01 T10521084  RH  078%=      5-min Rain = 0
KGO1 230554Z 32014KT M05/M08 A3014 RMK A01 T10521083  RH  079%=      5-min Rain = 0
KGO1 230555Z 32013KT M05/M08 A3014 RMK A01 T10521083  RH  079%=      5-min Rain = 0
KGO1 230556Z 32013KT M05/M08 A3014 RMK A01 T10521083  RH  078%=      5-min Rain = 0
KGO1 230557Z 32013KT M05/M08 A3014 RMK A01 T10521083  RH  079%=      5-min Rain = 0
KGO1 230558Z 32012KT M05/M08 A3014 RMK A01 T10521083  RH  079%=      5-min Rain = 0
KGO1 230559Z 32012KT M05/M08 A3014 RMK A01 T10531084  RH  079%=      5-min Rain = 0

Page generated in 0.0737 seconds.